CGL791 OOMS-LKTB
Flight info
| Callsign | CGL791 |
|---|---|
| Flight time | 6h 7m |
| Altitude | 40000 |
| Route | DARAT DCT KSA T503 OVANO L768 FIRAS R655 KTN R785 NIKAS L619 VESAR UN135 IMR UN127 RIKSO DCT RIPLI NOZ L551 ANTAR DCT RIPLI DCT BITLA DCT KOGAT DCT VAL/N0398F200 M127 TONDO DCT BADOV P41 MAVOR |
| Aircraft | A332/H-SDE3GHIJ2J3J5M1RVWXY/LB2D1 |
Departure
| Time | 2026-04-27 07:15 |
|---|---|
| Airport | Muscat International Airport (OOMS) |
Arrival
| Time | 2026-04-27 13:22 |
|---|---|
| Airport | Brno-Tuřany Airport (LKTB) |
| Time | Latitude | Longitude | Altitude | Speed | Heading |
|---|---|---|---|---|---|
| 2026-04-27 06:53 | 23.59973 | 58.28288 | 36 ft | 0 kts | 354° |
| 2026-04-27 07:02 | 23.59964 | 58.28289 | 36 ft | 2 kts | 354° |
| 2026-04-27 07:02 | 23.59949 | 58.28291 | 36 ft | 2 kts | 354° |
| 2026-04-27 07:02 | 23.59934 | 58.28292 | 36 ft | 2 kts | 354° |
| 2026-04-27 07:03 | 23.59920 | 58.28294 | 36 ft | 1 kts | 354° |
| 2026-04-27 07:03 | 23.59910 | 58.28296 | 37 ft | 2 kts | 348° |
| 2026-04-27 07:03 | 23.59896 | 58.28301 | 37 ft | 2 kts | 329° |
| 2026-04-27 07:03 | 23.59884 | 58.28311 | 36 ft | 2 kts | 314° |
| 2026-04-27 07:04 | 23.59875 | 58.28324 | 36 ft | 2 kts | 298° |
| 2026-04-27 07:04 | 23.59870 | 58.28339 | 36 ft | 2 kts | 282° |
| 2026-04-27 07:04 | 23.59868 | 58.28355 | 36 ft | 1 kts | 266° |
| 2026-04-27 07:04 | 23.59869 | 58.28360 | 36 ft | 0 kts | 264° |
| 2026-04-27 07:07 | 23.59868 | 58.28355 | 36 ft | 2 kts | 264° |
| 2026-04-27 07:07 | 23.59864 | 58.28312 | 36 ft | 9 kts | 264° |
| 2026-04-27 07:08 | 23.59856 | 58.28216 | 36 ft | 13 kts | 265° |
| 2026-04-27 07:08 | 23.59848 | 58.28119 | 36 ft | 10 kts | 265° |
| 2026-04-27 07:08 | 23.59843 | 58.28057 | 37 ft | 5 kts | 265° |
| 2026-04-27 07:08 | 23.59841 | 58.28025 | 36 ft | 3 kts | 265° |
| 2026-04-27 07:09 | 23.59839 | 58.28004 | 36 ft | 2 kts | 265° |
| 2026-04-27 07:09 | 23.59835 | 58.27965 | 36 ft | 10 kts | 252° |
| 2026-04-27 07:09 | 23.59754 | 58.27873 | 36 ft | 22 kts | 222° |
| 2026-04-27 07:09 | 23.59644 | 58.27770 | 37 ft | 19 kts | 220° |
| 2026-04-27 07:10 | 23.59543 | 58.27671 | 37 ft | 19 kts | 239° |
| 2026-04-27 07:10 | 23.59528 | 58.27533 | 36 ft | 20 kts | 259° |
| 2026-04-27 07:10 | 23.59568 | 58.27387 | 36 ft | 23 kts | 339° |
| 2026-04-27 07:10 | 23.59743 | 58.27361 | 36 ft | 28 kts | 354° |
| 2026-04-27 07:11 | 23.59955 | 58.27340 | 36 ft | 32 kts | 355° |
| 2026-04-27 07:11 | 23.60198 | 58.27311 | 36 ft | 37 kts | 354° |
| 2026-04-27 07:11 | 23.60439 | 58.27326 | 36 ft | 28 kts | 58° |
| 2026-04-27 07:11 | 23.60468 | 58.27545 | 36 ft | 31 kts | 83° |
| 2026-04-27 07:12 | 23.60490 | 58.27803 | 36 ft | 36 kts | 85° |
| 2026-04-27 07:12 | 23.60513 | 58.28097 | 36 ft | 41 kts | 85° |
| 2026-04-27 07:12 | 23.60539 | 58.28421 | 36 ft | 45 kts | 85° |
| 2026-04-27 07:12 | 23.60568 | 58.28783 | 36 ft | 50 kts | 85° |
| 2026-04-27 07:13 | 23.60600 | 58.29176 | 36 ft | 47 kts | 85° |
| 2026-04-27 07:13 | 23.60622 | 58.29451 | 36 ft | 36 kts | 85° |
| 2026-04-27 07:13 | 23.60650 | 58.29669 | 36 ft | 24 kts | 52° |
| 2026-04-27 07:13 | 23.60817 | 58.29704 | 36 ft | 27 kts | 353° |
| 2026-04-27 07:14 | 23.60889 | 58.29547 | 36 ft | 29 kts | 264° |
| 2026-04-27 07:14 | 23.60857 | 58.29132 | 36 ft | 84 kts | 265° |
| 2026-04-27 07:14 | 23.60789 | 58.28270 | 36 ft | 143 kts | 265° |
| 2026-04-27 07:14 | 23.60692 | 58.27059 | 387 ft | 168 kts | 265° |
| 2026-04-27 07:15 | 23.60588 | 58.25785 | 1089 ft | 170 kts | 264° |
| 2026-04-27 07:15 | 23.60484 | 58.24529 | 1831 ft | 171 kts | 265° |
| 2026-04-27 07:15 | 23.60340 | 58.23228 | 2499 ft | 179 kts | 253° |
| 2026-04-27 07:15 | 23.59749 | 58.21988 | 2759 ft | 195 kts | 234° |
| 2026-04-27 07:16 | 23.58917 | 58.20729 | 2910 ft | 218 kts | 235° |
| 2026-04-27 07:16 | 23.58002 | 58.19281 | 3044 ft | 245 kts | 235° |
| 2026-04-27 07:16 | 23.56967 | 58.17663 | 3329 ft | 264 kts | 234° |
| 2026-04-27 07:16 | 23.55921 | 58.16042 | 3958 ft | 265 kts | 234° |
| 2026-04-27 07:17 | 23.54858 | 58.14400 | 4650 ft | 267 kts | 234° |
| 2026-04-27 07:17 | 23.53788 | 58.12753 | 5363 ft | 270 kts | 234° |
| 2026-04-27 07:17 | 23.52695 | 58.11076 | 6085 ft | 272 kts | 234° |
| 2026-04-27 07:17 | 23.51594 | 58.09386 | 6798 ft | 275 kts | 234° |
| 2026-04-27 07:18 | 23.50499 | 58.07709 | 7487 ft | 278 kts | 234° |
| 2026-04-27 07:18 | 23.49369 | 58.05980 | 8183 ft | 281 kts | 234° |
| 2026-04-27 07:18 | 23.48241 | 58.04254 | 8858 ft | 283 kts | 234° |
| 2026-04-27 07:18 | 23.47096 | 58.02502 | 9531 ft | 286 kts | 234° |
| 2026-04-27 07:19 | 23.45948 | 58.00746 | 10194 ft | 289 kts | 234° |
| 2026-04-27 07:19 | 23.44751 | 57.98914 | 10471 ft | 308 kts | 234° |
| 2026-04-27 07:19 | 23.43467 | 57.96952 | 10652 ft | 329 kts | 234° |
| 2026-04-27 07:19 | 23.42103 | 57.94865 | 10887 ft | 348 kts | 234° |
| 2026-04-27 07:20 | 23.40665 | 57.92666 | 11122 ft | 368 kts | 234° |
| 2026-04-27 07:20 | 23.39142 | 57.90338 | 11535 ft | 377 kts | 234° |
| 2026-04-27 07:20 | 23.37641 | 57.88042 | 12133 ft | 379 kts | 234° |
| 2026-04-27 07:20 | 23.36095 | 57.85679 | 12800 ft | 382 kts | 234° |
| 2026-04-27 07:21 | 23.34544 | 57.83306 | 13492 ft | 386 kts | 234° |
| 2026-04-27 07:21 | 23.32977 | 57.80911 | 14189 ft | 390 kts | 234° |
| 2026-04-27 07:21 | 23.31403 | 57.78503 | 14860 ft | 394 kts | 234° |
| 2026-04-27 07:21 | 23.29809 | 57.76066 | 15518 ft | 397 kts | 234° |
| 2026-04-27 07:22 | 23.28218 | 57.73633 | 16160 ft | 401 kts | 234° |
| 2026-04-27 07:22 | 23.26591 | 57.71145 | 16795 ft | 405 kts | 234° |
| 2026-04-27 07:22 | 23.24955 | 57.68643 | 17416 ft | 409 kts | 234° |
| 2026-04-27 07:22 | 23.23303 | 57.66118 | 18023 ft | 412 kts | 234° |
| 2026-04-27 07:23 | 23.21631 | 57.63560 | 18619 ft | 416 kts | 234° |
| 2026-04-27 07:23 | 23.19945 | 57.60984 | 19201 ft | 419 kts | 234° |
| 2026-04-27 07:23 | 23.18271 | 57.58424 | 19762 ft | 423 kts | 234° |
| 2026-04-27 07:23 | 23.16550 | 57.55792 | 20323 ft | 426 kts | 234° |
| 2026-04-27 07:24 | 23.14834 | 57.53167 | 20865 ft | 430 kts | 234° |
| 2026-04-27 07:24 | 23.13127 | 57.50488 | 21390 ft | 433 kts | 240° |
| 2026-04-27 07:24 | 23.12009 | 57.47492 | 21865 ft | 436 kts | 259° |
| 2026-04-27 07:24 | 23.11949 | 57.44191 | 22326 ft | 439 kts | 281° |
| 2026-04-27 07:25 | 23.13027 | 57.41092 | 22771 ft | 442 kts | 303° |
| 2026-04-27 07:25 | 23.15116 | 57.38621 | 23210 ft | 445 kts | 325° |
| 2026-04-27 07:25 | 23.17871 | 57.37167 | 23637 ft | 448 kts | 344° |
| 2026-04-27 07:25 | 23.20825 | 57.36079 | 24090 ft | 451 kts | 334° |
| 2026-04-27 07:26 | 23.23405 | 57.34124 | 24510 ft | 454 kts | 314° |
| 2026-04-27 07:26 | 23.25205 | 57.31323 | 24900 ft | 457 kts | 294° |
| 2026-04-27 07:26 | 23.26408 | 57.28117 | 25327 ft | 460 kts | 292° |
| 2026-04-27 07:26 | 23.27747 | 57.24957 | 25749 ft | 463 kts | 296° |
| 2026-04-27 07:27 | 23.29180 | 57.21859 | 26162 ft | 465 kts | 296° |
| 2026-04-27 07:27 | 23.30645 | 57.18705 | 26565 ft | 468 kts | 297° |
| 2026-04-27 07:27 | 23.32123 | 57.15551 | 26958 ft | 471 kts | 297° |
| 2026-04-27 07:27 | 23.33631 | 57.12345 | 27348 ft | 474 kts | 297° |
| 2026-04-27 07:28 | 23.35124 | 57.09178 | 27721 ft | 476 kts | 297° |
| 2026-04-27 07:28 | 23.36632 | 57.05978 | 28088 ft | 479 kts | 297° |
| 2026-04-27 07:28 | 23.38173 | 57.02711 | 28451 ft | 482 kts | 297° |
| 2026-04-27 07:28 | 23.39686 | 56.99504 | 28804 ft | 483 kts | 297° |
| 2026-04-27 07:29 | 23.41224 | 56.96244 | 29180 ft | 483 kts | 297° |
| 2026-04-27 07:29 | 23.42752 | 56.93005 | 29549 ft | 482 kts | 297° |
| 2026-04-27 07:29 | 23.44278 | 56.89770 | 29915 ft | 481 kts | 297° |
| 2026-04-27 07:29 | 23.45802 | 56.86539 | 30274 ft | 480 kts | 297° |
| 2026-04-27 07:30 | 23.47319 | 56.83324 | 30625 ft | 480 kts | 297° |
| 2026-04-27 07:30 | 23.48849 | 56.80079 | 30974 ft | 479 kts | 297° |
| 2026-04-27 07:30 | 23.50366 | 56.76863 | 31314 ft | 478 kts | 297° |
| 2026-04-27 07:30 | 23.51882 | 56.73650 | 31648 ft | 478 kts | 297° |
| 2026-04-27 07:31 | 23.53389 | 56.70455 | 31973 ft | 477 kts | 297° |
| 2026-04-27 07:31 | 23.54915 | 56.67221 | 32295 ft | 476 kts | 297° |
| 2026-04-27 07:31 | 23.56414 | 56.64043 | 32605 ft | 476 kts | 297° |
| 2026-04-27 07:31 | 23.57927 | 56.60835 | 32912 ft | 475 kts | 297° |
| 2026-04-27 07:32 | 23.59438 | 56.57631 | 33211 ft | 474 kts | 297° |
| 2026-04-27 07:32 | 23.60952 | 56.54424 | 33503 ft | 474 kts | 297° |
| 2026-04-27 07:32 | 23.62443 | 56.51263 | 33784 ft | 473 kts | 297° |
| 2026-04-27 07:32 | 23.63957 | 56.48053 | 34063 ft | 473 kts | 297° |
| 2026-04-27 07:33 | 23.65449 | 56.44890 | 34331 ft | 472 kts | 297° |
| 2026-04-27 07:33 | 23.66961 | 56.41685 | 34595 ft | 471 kts | 297° |
| 2026-04-27 07:33 | 23.68456 | 56.38516 | 34850 ft | 471 kts | 297° |
| 2026-04-27 07:33 | 23.69960 | 56.35326 | 35099 ft | 470 kts | 297° |
| 2026-04-27 07:34 | 23.71441 | 56.32153 | 35339 ft | 470 kts | 296° |
| 2026-04-27 07:34 | 23.72923 | 56.28957 | 35572 ft | 469 kts | 297° |
| 2026-04-27 07:34 | 23.74398 | 56.25815 | 35794 ft | 469 kts | 297° |
| 2026-04-27 07:34 | 23.75902 | 56.22619 | 36014 ft | 468 kts | 297° |
| 2026-04-27 07:35 | 23.77394 | 56.19454 | 36223 ft | 468 kts | 297° |
| 2026-04-27 07:35 | 23.78883 | 56.16295 | 36417 ft | 468 kts | 297° |
| 2026-04-27 07:35 | 23.80369 | 56.13144 | 36603 ft | 468 kts | 297° |
| 2026-04-27 07:35 | 23.81866 | 56.09971 | 36783 ft | 468 kts | 297° |
| 2026-04-27 07:36 | 23.83347 | 56.06832 | 36955 ft | 468 kts | 297° |
| 2026-04-27 07:36 | 23.84842 | 56.03661 | 37123 ft | 468 kts | 297° |
| 2026-04-27 07:36 | 23.86330 | 56.00507 | 37286 ft | 468 kts | 297° |
| 2026-04-27 07:36 | 23.87819 | 55.97352 | 37444 ft | 468 kts | 297° |
| 2026-04-27 07:37 | 23.89318 | 55.94173 | 37598 ft | 468 kts | 297° |
| 2026-04-27 07:37 | 23.90798 | 55.91036 | 37745 ft | 468 kts | 297° |
| 2026-04-27 07:37 | 23.92289 | 55.87875 | 37889 ft | 468 kts | 297° |
| 2026-04-27 07:37 | 23.93795 | 55.84684 | 38012 ft | 470 kts | 297° |
| 2026-04-27 07:38 | 23.95290 | 55.81514 | 38021 ft | 475 kts | 297° |
| 2026-04-27 07:38 | 23.98326 | 55.75079 | 37997 ft | 473 kts | 297° |
| 2026-04-27 07:39 | 24.01320 | 55.68732 | 38006 ft | 472 kts | 297° |
| 2026-04-27 07:39 | 24.04325 | 55.62360 | 38007 ft | 471 kts | 297° |
| 2026-04-27 07:40 | 24.07325 | 55.56000 | 38006 ft | 472 kts | 297° |
| 2026-04-27 07:40 | 24.10339 | 55.49611 | 38006 ft | 471 kts | 297° |
| 2026-04-27 07:41 | 24.13355 | 55.43272 | 38006 ft | 472 kts | 297° |
| 2026-04-27 07:41 | 24.16362 | 55.36908 | 38006 ft | 472 kts | 297° |
| 2026-04-27 07:42 | 24.19362 | 55.30480 | 38005 ft | 472 kts | 297° |
| 2026-04-27 07:42 | 24.22341 | 55.24123 | 38005 ft | 472 kts | 297° |
| 2026-04-27 07:43 | 24.25357 | 55.17724 | 38005 ft | 472 kts | 297° |
| 2026-04-27 07:43 | 24.28369 | 55.11336 | 38005 ft | 472 kts | 297° |
| 2026-04-27 07:44 | 24.31376 | 55.04962 | 38005 ft | 472 kts | 297° |
| 2026-04-27 07:44 | 24.34388 | 54.98576 | 38005 ft | 472 kts | 297° |
| 2026-04-27 07:45 | 24.37397 | 54.92199 | 38005 ft | 472 kts | 297° |
| 2026-04-27 07:45 | 24.40413 | 54.85806 | 38005 ft | 472 kts | 297° |
| 2026-04-27 07:46 | 24.43443 | 54.79383 | 38005 ft | 472 kts | 297° |
| 2026-04-27 07:46 | 24.46449 | 54.73012 | 38005 ft | 472 kts | 297° |
| 2026-04-27 07:47 | 24.49463 | 54.66621 | 38006 ft | 472 kts | 297° |
| 2026-04-27 07:47 | 24.52485 | 54.60215 | 38114 ft | 470 kts | 297° |
| 2026-04-27 07:47 | 24.53971 | 54.57064 | 38226 ft | 472 kts | 297° |
| 2026-04-27 07:48 | 24.55481 | 54.53864 | 38339 ft | 472 kts | 297° |
| 2026-04-27 07:48 | 24.57002 | 54.50639 | 38448 ft | 472 kts | 297° |
| 2026-04-27 07:48 | 24.58501 | 54.47462 | 38555 ft | 472 kts | 297° |
| 2026-04-27 07:48 | 24.60026 | 54.44228 | 38665 ft | 472 kts | 297° |
| 2026-04-27 07:49 | 24.61526 | 54.41050 | 38774 ft | 472 kts | 297° |
| 2026-04-27 07:49 | 24.63036 | 54.37849 | 38884 ft | 472 kts | 297° |
| 2026-04-27 07:49 | 24.64545 | 54.34650 | 38994 ft | 472 kts | 297° |
| 2026-04-27 07:49 | 24.66032 | 54.31450 | 39102 ft | 472 kts | 297° |
| 2026-04-27 07:50 | 24.67526 | 54.28234 | 39211 ft | 472 kts | 297° |
| 2026-04-27 07:50 | 24.69035 | 54.25023 | 39319 ft | 472 kts | 297° |
| 2026-04-27 07:50 | 24.70540 | 54.21825 | 39428 ft | 472 kts | 297° |
| 2026-04-27 07:50 | 24.72058 | 54.18603 | 39537 ft | 472 kts | 297° |
| 2026-04-27 07:51 | 24.73561 | 54.15418 | 39646 ft | 472 kts | 297° |
| 2026-04-27 07:51 | 24.75092 | 54.12170 | 39756 ft | 472 kts | 297° |
| 2026-04-27 07:51 | 24.76596 | 54.08982 | 39865 ft | 472 kts | 297° |
| 2026-04-27 07:51 | 24.78112 | 54.05769 | 39978 ft | 472 kts | 297° |
| 2026-04-27 07:52 | 24.79626 | 54.02560 | 40000 ft | 474 kts | 297° |
| 2026-04-27 07:52 | 24.82639 | 53.96172 | 39998 ft | 472 kts | 297° |
| 2026-04-27 07:53 | 24.85680 | 53.89727 | 40003 ft | 471 kts | 297° |
| 2026-04-27 07:53 | 24.88706 | 53.83310 | 40000 ft | 472 kts | 297° |
| 2026-04-27 07:54 | 24.91731 | 53.76897 | 40001 ft | 471 kts | 297° |
| 2026-04-27 07:54 | 24.94743 | 53.70514 | 40001 ft | 472 kts | 297° |
| 2026-04-27 07:55 | 24.97761 | 53.64116 | 40001 ft | 472 kts | 297° |
| 2026-04-27 07:55 | 25.00790 | 53.57695 | 40001 ft | 472 kts | 297° |
| 2026-04-27 07:56 | 25.03818 | 53.51276 | 40001 ft | 472 kts | 297° |
| 2026-04-27 07:56 | 25.06843 | 53.44864 | 40001 ft | 472 kts | 297° |
| 2026-04-27 07:57 | 25.09880 | 53.38425 | 40001 ft | 472 kts | 298° |
| 2026-04-27 07:57 | 25.12907 | 53.32015 | 40001 ft | 472 kts | 297° |
| 2026-04-27 07:58 | 25.15913 | 53.25586 | 40001 ft | 472 kts | 297° |
| 2026-04-27 07:58 | 25.18942 | 53.19157 | 40001 ft | 472 kts | 297° |
| 2026-04-27 07:59 | 25.21950 | 53.12780 | 40001 ft | 472 kts | 297° |
| 2026-04-27 07:59 | 25.26485 | 53.03167 | 40001 ft | 472 kts | 297° |
| 2026-04-27 08:00 | 25.29518 | 52.96736 | 40001 ft | 472 kts | 297° |
| 2026-04-27 08:00 | 25.32535 | 52.90339 | 40001 ft | 472 kts | 297° |
| 2026-04-27 08:01 | 25.35571 | 52.83905 | 40001 ft | 472 kts | 297° |
| 2026-04-27 08:01 | 25.38587 | 52.77512 | 40001 ft | 472 kts | 297° |
| 2026-04-27 08:02 | 25.41618 | 52.71086 | 40001 ft | 472 kts | 297° |
| 2026-04-27 08:02 | 25.44672 | 52.64614 | 40001 ft | 472 kts | 297° |
| 2026-04-27 08:03 | 25.47689 | 52.58218 | 40001 ft | 472 kts | 297° |
| 2026-04-27 08:03 | 25.50733 | 52.51763 | 40001 ft | 472 kts | 298° |
| 2026-04-27 08:04 | 25.53776 | 52.45313 | 40001 ft | 472 kts | 298° |
| 2026-04-27 08:04 | 25.56805 | 52.38892 | 40001 ft | 472 kts | 298° |
| 2026-04-27 08:05 | 25.59827 | 52.32461 | 40001 ft | 472 kts | 297° |
| 2026-04-27 08:05 | 25.62835 | 52.26003 | 40001 ft | 472 kts | 297° |
| 2026-04-27 08:06 | 25.65876 | 52.19545 | 40001 ft | 472 kts | 297° |
| 2026-04-27 08:06 | 25.68905 | 52.13121 | 40001 ft | 472 kts | 297° |
| 2026-04-27 08:07 | 25.71944 | 52.06679 | 40001 ft | 472 kts | 297° |
| 2026-04-27 08:07 | 25.74990 | 52.00220 | 40001 ft | 472 kts | 297° |
| 2026-04-27 08:08 | 25.78024 | 51.93789 | 40001 ft | 472 kts | 297° |
| 2026-04-27 08:08 | 25.81079 | 51.87313 | 40001 ft | 472 kts | 297° |
| 2026-04-27 08:09 | 25.84121 | 51.80867 | 40001 ft | 472 kts | 297° |
| 2026-04-27 08:09 | 25.87168 | 51.74406 | 40001 ft | 472 kts | 298° |
| 2026-04-27 08:10 | 25.90209 | 51.67961 | 40001 ft | 472 kts | 298° |
| 2026-04-27 08:10 | 25.93255 | 51.61504 | 40001 ft | 472 kts | 298° |
| 2026-04-27 08:11 | 25.96306 | 51.55036 | 40001 ft | 472 kts | 298° |
| 2026-04-27 08:11 | 25.99344 | 51.48596 | 40001 ft | 472 kts | 298° |
| 2026-04-27 08:12 | 26.02367 | 51.42185 | 40001 ft | 472 kts | 298° |
| 2026-04-27 08:12 | 26.05420 | 51.35712 | 40001 ft | 472 kts | 298° |
| 2026-04-27 08:13 | 26.08428 | 51.29251 | 40001 ft | 472 kts | 297° |
| 2026-04-27 08:13 | 26.11470 | 51.22792 | 40001 ft | 472 kts | 298° |
| 2026-04-27 08:14 | 26.14525 | 51.16344 | 40001 ft | 472 kts | 297° |
| 2026-04-27 08:14 | 26.17564 | 51.09905 | 40001 ft | 472 kts | 297° |
| 2026-04-27 08:15 | 26.20603 | 51.03464 | 40001 ft | 472 kts | 297° |
| 2026-04-27 08:15 | 26.23648 | 50.97009 | 40001 ft | 472 kts | 297° |
| 2026-04-27 08:16 | 26.26712 | 50.90515 | 40001 ft | 472 kts | 298° |
| 2026-04-27 08:16 | 26.29756 | 50.84063 | 40001 ft | 472 kts | 298° |
| 2026-04-27 08:17 | 26.32786 | 50.77640 | 40001 ft | 472 kts | 298° |
| 2026-04-27 08:17 | 26.35845 | 50.71155 | 40001 ft | 472 kts | 298° |
| 2026-04-27 08:18 | 26.38890 | 50.64700 | 40001 ft | 472 kts | 298° |
| 2026-04-27 08:18 | 26.41943 | 50.58228 | 40001 ft | 472 kts | 298° |
| 2026-04-27 08:19 | 26.44983 | 50.51786 | 40001 ft | 472 kts | 298° |
| 2026-04-27 08:19 | 26.48044 | 50.45296 | 40001 ft | 472 kts | 298° |
| 2026-04-27 08:20 | 26.51118 | 50.38779 | 40001 ft | 472 kts | 298° |
| 2026-04-27 08:20 | 26.54151 | 50.32321 | 40001 ft | 472 kts | 297° |
| 2026-04-27 08:21 | 26.57183 | 50.25814 | 40001 ft | 472 kts | 297° |
| 2026-04-27 08:21 | 26.60231 | 50.19341 | 40001 ft | 472 kts | 297° |
| 2026-04-27 08:22 | 26.63287 | 50.12862 | 40001 ft | 472 kts | 298° |
| 2026-04-27 08:22 | 26.66365 | 50.06337 | 40001 ft | 472 kts | 298° |
| 2026-04-27 08:23 | 26.69416 | 49.99869 | 40001 ft | 472 kts | 298° |
| 2026-04-27 08:23 | 26.72460 | 49.93415 | 40001 ft | 472 kts | 298° |
| 2026-04-27 08:24 | 26.75527 | 49.86915 | 40001 ft | 472 kts | 298° |
| 2026-04-27 08:24 | 26.78582 | 49.80437 | 40001 ft | 472 kts | 298° |
| 2026-04-27 08:25 | 26.81638 | 49.73959 | 40001 ft | 472 kts | 298° |
| 2026-04-27 08:25 | 26.84695 | 49.67478 | 40001 ft | 472 kts | 298° |
| 2026-04-27 08:26 | 26.87775 | 49.60950 | 40001 ft | 472 kts | 298° |
| 2026-04-27 08:26 | 26.90842 | 49.54449 | 40001 ft | 472 kts | 298° |
| 2026-04-27 08:27 | 26.93901 | 49.47964 | 40001 ft | 472 kts | 298° |
| 2026-04-27 08:27 | 26.96957 | 49.41488 | 40001 ft | 472 kts | 298° |
| 2026-04-27 08:28 | 27.00041 | 49.34951 | 40001 ft | 472 kts | 298° |
| 2026-04-27 08:28 | 27.03072 | 49.28430 | 40001 ft | 472 kts | 297° |
| 2026-04-27 08:29 | 27.06134 | 49.21919 | 40001 ft | 472 kts | 298° |
| 2026-04-27 08:29 | 27.09197 | 49.15420 | 40001 ft | 472 kts | 298° |
| 2026-04-27 08:30 | 27.12285 | 49.08906 | 40001 ft | 472 kts | 298° |
| 2026-04-27 08:30 | 27.15352 | 49.02420 | 40001 ft | 472 kts | 298° |
| 2026-04-27 08:31 | 27.18427 | 48.95905 | 40001 ft | 472 kts | 298° |
| 2026-04-27 08:31 | 27.21504 | 48.89383 | 40001 ft | 472 kts | 298° |
| 2026-04-27 08:32 | 27.24579 | 48.82865 | 40001 ft | 472 kts | 298° |
| 2026-04-27 08:32 | 27.27639 | 48.76378 | 40001 ft | 472 kts | 298° |
| 2026-04-27 08:33 | 27.30727 | 48.69833 | 40001 ft | 472 kts | 298° |
| 2026-04-27 08:33 | 27.33792 | 48.63336 | 40001 ft | 472 kts | 298° |
| 2026-04-27 08:34 | 27.36860 | 48.56833 | 40001 ft | 472 kts | 298° |
| 2026-04-27 08:34 | 27.39947 | 48.50288 | 40001 ft | 472 kts | 298° |
| 2026-04-27 08:35 | 27.43019 | 48.43778 | 40001 ft | 472 kts | 298° |
| 2026-04-27 08:35 | 27.46086 | 48.37276 | 40001 ft | 472 kts | 298° |
| 2026-04-27 08:36 | 27.49149 | 48.30717 | 40001 ft | 472 kts | 297° |
| 2026-04-27 08:36 | 27.52213 | 48.24169 | 40001 ft | 472 kts | 298° |
| 2026-04-27 08:37 | 27.55282 | 48.17651 | 40001 ft | 472 kts | 298° |
| 2026-04-27 08:37 | 27.58353 | 48.11140 | 40001 ft | 472 kts | 298° |
| 2026-04-27 08:38 | 27.61430 | 48.04618 | 40001 ft | 472 kts | 298° |
| 2026-04-27 08:38 | 27.64519 | 47.98071 | 40001 ft | 472 kts | 298° |
| 2026-04-27 08:39 | 27.67601 | 47.91537 | 40001 ft | 472 kts | 298° |
| 2026-04-27 08:39 | 27.70677 | 47.85016 | 40001 ft | 472 kts | 298° |
| 2026-04-27 08:40 | 27.73779 | 47.78439 | 40001 ft | 472 kts | 298° |
| 2026-04-27 08:40 | 27.76840 | 47.71951 | 40001 ft | 472 kts | 298° |
| 2026-04-27 08:41 | 27.79939 | 47.65382 | 40001 ft | 472 kts | 298° |
| 2026-04-27 08:41 | 27.83005 | 47.58883 | 40001 ft | 472 kts | 298° |
| 2026-04-27 08:42 | 27.86091 | 47.52343 | 40001 ft | 472 kts | 298° |
| 2026-04-27 08:42 | 27.89189 | 47.45776 | 40001 ft | 472 kts | 298° |
| 2026-04-27 08:43 | 27.92269 | 47.39245 | 40001 ft | 472 kts | 298° |
| 2026-04-27 08:43 | 27.95347 | 47.32698 | 40001 ft | 472 kts | 297° |
| 2026-04-27 08:44 | 27.98395 | 47.26156 | 40001 ft | 472 kts | 298° |
| 2026-04-27 08:44 | 28.01487 | 47.19590 | 40001 ft | 472 kts | 298° |
| 2026-04-27 08:45 | 28.04581 | 47.13029 | 40001 ft | 472 kts | 298° |
| 2026-04-27 08:45 | 28.07653 | 47.06517 | 40001 ft | 472 kts | 298° |
| 2026-04-27 08:46 | 28.10752 | 46.99950 | 40001 ft | 472 kts | 298° |
| 2026-04-27 08:46 | 28.13841 | 46.93443 | 40001 ft | 472 kts | 298° |
| 2026-04-27 08:47 | 28.16953 | 46.86853 | 40001 ft | 472 kts | 298° |
| 2026-04-27 08:47 | 28.20040 | 46.80310 | 40001 ft | 472 kts | 298° |
| 2026-04-27 08:48 | 28.23125 | 46.73771 | 40001 ft | 472 kts | 298° |
| 2026-04-27 08:48 | 28.26232 | 46.67186 | 40001 ft | 472 kts | 298° |
| 2026-04-27 08:49 | 28.29323 | 46.60633 | 40001 ft | 472 kts | 298° |
| 2026-04-27 08:49 | 28.32408 | 46.54095 | 40001 ft | 472 kts | 298° |
| 2026-04-27 08:50 | 28.35492 | 46.47558 | 40001 ft | 472 kts | 298° |
| 2026-04-27 08:50 | 28.38577 | 46.41018 | 40001 ft | 472 kts | 298° |
| 2026-04-27 08:51 | 28.41682 | 46.34436 | 40001 ft | 472 kts | 298° |
| 2026-04-27 08:51 | 28.44760 | 46.27810 | 40001 ft | 472 kts | 298° |
| 2026-04-27 08:52 | 28.47856 | 46.21230 | 40001 ft | 472 kts | 298° |
| 2026-04-27 08:52 | 28.50938 | 46.14694 | 40001 ft | 472 kts | 298° |
| 2026-04-27 08:53 | 28.54064 | 46.08065 | 40001 ft | 472 kts | 298° |
| 2026-04-27 08:53 | 28.57150 | 46.01524 | 40001 ft | 472 kts | 298° |
| 2026-04-27 08:54 | 28.60245 | 45.94965 | 40001 ft | 472 kts | 298° |
| 2026-04-27 08:54 | 28.63344 | 45.88394 | 40001 ft | 472 kts | 298° |
| 2026-04-27 08:55 | 28.66445 | 45.81822 | 40001 ft | 472 kts | 298° |
| 2026-04-27 08:55 | 28.69550 | 45.75238 | 40001 ft | 472 kts | 298° |
| 2026-04-27 08:56 | 28.72651 | 45.68665 | 40001 ft | 472 kts | 298° |
| 2026-04-27 08:56 | 28.75761 | 45.62073 | 40001 ft | 472 kts | 298° |
| 2026-04-27 08:57 | 28.80428 | 45.52180 | 40001 ft | 472 kts | 298° |
| 2026-04-27 08:58 | 28.83544 | 45.45577 | 40001 ft | 472 kts | 298° |
| 2026-04-27 08:58 | 28.86655 | 45.38981 | 40001 ft | 472 kts | 298° |
| 2026-04-27 08:59 | 28.89742 | 45.32409 | 40001 ft | 472 kts | 297° |
| 2026-04-27 08:59 | 28.92821 | 45.25804 | 40001 ft | 472 kts | 298° |
| 2026-04-27 09:00 | 28.95937 | 45.19188 | 40001 ft | 472 kts | 298° |
| 2026-04-27 09:00 | 28.99046 | 45.12593 | 40001 ft | 472 kts | 298° |
| 2026-04-27 09:01 | 29.02150 | 45.06014 | 40001 ft | 472 kts | 298° |
| 2026-04-27 09:01 | 29.05274 | 44.99391 | 40001 ft | 472 kts | 298° |
| 2026-04-27 09:02 | 29.08371 | 44.92827 | 40001 ft | 472 kts | 298° |
| 2026-04-27 09:02 | 29.11504 | 44.86200 | 40001 ft | 472 kts | 298° |
| 2026-04-27 09:03 | 29.14614 | 44.79638 | 40001 ft | 472 kts | 298° |
| 2026-04-27 09:03 | 29.17720 | 44.73057 | 40001 ft | 472 kts | 298° |
| 2026-04-27 09:04 | 29.20838 | 44.66448 | 40001 ft | 472 kts | 298° |
| 2026-04-27 09:04 | 29.23954 | 44.59844 | 40001 ft | 472 kts | 298° |
| 2026-04-27 09:05 | 29.27073 | 44.53234 | 40001 ft | 472 kts | 298° |
| 2026-04-27 09:05 | 29.30192 | 44.46623 | 40001 ft | 472 kts | 298° |
| 2026-04-27 09:06 | 29.33302 | 44.40029 | 40001 ft | 472 kts | 298° |
| 2026-04-27 09:06 | 29.36414 | 44.33424 | 40001 ft | 472 kts | 298° |
| 2026-04-27 09:07 | 29.39504 | 44.26777 | 40001 ft | 472 kts | 298° |
| 2026-04-27 09:07 | 29.42609 | 44.20181 | 40001 ft | 472 kts | 298° |
| 2026-04-27 09:08 | 29.45724 | 44.13573 | 40001 ft | 472 kts | 298° |
| 2026-04-27 09:08 | 29.48842 | 44.06965 | 40001 ft | 472 kts | 298° |
| 2026-04-27 09:09 | 29.51963 | 44.00348 | 40001 ft | 472 kts | 298° |
| 2026-04-27 09:09 | 29.55081 | 43.93739 | 40001 ft | 472 kts | 298° |
| 2026-04-27 09:10 | 29.58205 | 43.87116 | 40001 ft | 472 kts | 298° |
| 2026-04-27 09:10 | 29.61316 | 43.80522 | 40001 ft | 472 kts | 298° |
| 2026-04-27 09:11 | 29.64460 | 43.73860 | 40001 ft | 472 kts | 298° |
| 2026-04-27 09:11 | 29.67579 | 43.67247 | 40001 ft | 472 kts | 298° |
| 2026-04-27 09:12 | 29.70701 | 43.60630 | 40001 ft | 472 kts | 298° |
| 2026-04-27 09:12 | 29.73827 | 43.54004 | 40001 ft | 472 kts | 298° |
| 2026-04-27 09:13 | 29.76955 | 43.47374 | 40001 ft | 472 kts | 298° |
| 2026-04-27 09:13 | 29.80090 | 43.40728 | 40001 ft | 472 kts | 299° |
| 2026-04-27 09:14 | 29.83218 | 43.34095 | 40001 ft | 472 kts | 298° |
| 2026-04-27 09:14 | 29.86308 | 43.27443 | 40001 ft | 472 kts | 298° |
| 2026-04-27 09:15 | 29.89419 | 43.20832 | 40001 ft | 472 kts | 298° |
| 2026-04-27 09:15 | 29.92565 | 43.14159 | 40001 ft | 472 kts | 298° |
| 2026-04-27 09:16 | 29.95697 | 43.07521 | 40001 ft | 472 kts | 298° |
| 2026-04-27 09:16 | 29.98830 | 43.00897 | 40000 ft | 472 kts | 301° |
| 2026-04-27 09:16 | 30.00789 | 42.97861 | 40020 ft | 471 kts | 314° |
| 2026-04-27 09:17 | 30.03061 | 42.95121 | 39990 ft | 473 kts | 311° |
| 2026-04-27 09:17 | 30.07202 | 42.89268 | 40005 ft | 472 kts | 308° |
| 2026-04-27 09:18 | 30.11290 | 42.83294 | 39999 ft | 472 kts | 308° |
| 2026-04-27 09:18 | 30.15329 | 42.77367 | 40001 ft | 472 kts | 308° |
| 2026-04-27 09:19 | 30.19363 | 42.71420 | 40001 ft | 472 kts | 308° |
| 2026-04-27 09:19 | 30.23419 | 42.65436 | 40001 ft | 472 kts | 308° |
| 2026-04-27 09:20 | 30.27447 | 42.59492 | 40001 ft | 472 kts | 308° |
| 2026-04-27 09:20 | 30.31513 | 42.53493 | 40001 ft | 472 kts | 308° |
| 2026-04-27 09:21 | 30.35570 | 42.47507 | 40001 ft | 472 kts | 308° |
| 2026-04-27 09:21 | 30.39615 | 42.41538 | 40001 ft | 472 kts | 308° |
| 2026-04-27 09:22 | 30.43661 | 42.35568 | 40001 ft | 472 kts | 308° |
| 2026-04-27 09:22 | 30.47692 | 42.29541 | 40001 ft | 472 kts | 308° |
| 2026-04-27 09:23 | 30.51707 | 42.23595 | 40001 ft | 472 kts | 308° |
| 2026-04-27 09:23 | 30.55761 | 42.17607 | 40001 ft | 472 kts | 308° |
| 2026-04-27 09:24 | 30.59796 | 42.11653 | 40001 ft | 472 kts | 308° |
| 2026-04-27 09:24 | 30.63855 | 42.05663 | 40001 ft | 472 kts | 308° |
| 2026-04-27 09:25 | 30.67931 | 41.99649 | 40001 ft | 472 kts | 308° |
| 2026-04-27 09:25 | 30.71996 | 41.93650 | 40001 ft | 472 kts | 308° |
| 2026-04-27 09:26 | 30.76057 | 41.87659 | 40001 ft | 472 kts | 308° |
| 2026-04-27 09:26 | 30.80096 | 41.81699 | 40001 ft | 472 kts | 308° |
| 2026-04-27 09:27 | 30.84171 | 41.75684 | 40001 ft | 472 kts | 308° |
| 2026-04-27 09:27 | 30.88218 | 41.69713 | 40001 ft | 472 kts | 308° |
| 2026-04-27 09:28 | 30.92287 | 41.63710 | 40001 ft | 472 kts | 308° |
| 2026-04-27 09:28 | 30.96324 | 41.57752 | 40001 ft | 472 kts | 308° |
| 2026-04-27 09:29 | 31.00404 | 41.51733 | 40001 ft | 472 kts | 308° |
| 2026-04-27 09:29 | 31.04479 | 41.45718 | 40001 ft | 472 kts | 308° |
| 2026-04-27 09:30 | 31.08550 | 41.39712 | 40001 ft | 472 kts | 309° |
| 2026-04-27 09:30 | 31.12632 | 41.33698 | 40001 ft | 472 kts | 308° |
| 2026-04-27 09:31 | 31.16657 | 41.27687 | 40001 ft | 472 kts | 308° |
| 2026-04-27 09:31 | 31.20726 | 41.21672 | 40001 ft | 472 kts | 308° |
| 2026-04-27 09:32 | 31.24809 | 41.15645 | 40001 ft | 472 kts | 308° |
| 2026-04-27 09:32 | 31.28872 | 41.09650 | 40001 ft | 472 kts | 308° |
| 2026-04-27 09:33 | 31.32951 | 41.03630 | 40001 ft | 472 kts | 308° |
| 2026-04-27 09:33 | 31.37012 | 40.97638 | 40001 ft | 472 kts | 308° |
| 2026-04-27 09:34 | 31.41112 | 40.91587 | 40001 ft | 472 kts | 308° |
| 2026-04-27 09:34 | 31.45191 | 40.85569 | 40001 ft | 472 kts | 308° |
| 2026-04-27 09:35 | 31.49266 | 40.79557 | 40001 ft | 472 kts | 308° |
| 2026-04-27 09:35 | 31.53352 | 40.73527 | 40001 ft | 472 kts | 308° |
| 2026-04-27 09:36 | 31.57425 | 40.67517 | 40001 ft | 472 kts | 308° |
| 2026-04-27 09:36 | 31.61492 | 40.61517 | 40001 ft | 472 kts | 309° |
| 2026-04-27 09:37 | 31.65584 | 40.55477 | 40001 ft | 472 kts | 309° |
| 2026-04-27 09:37 | 31.69665 | 40.49456 | 40001 ft | 472 kts | 309° |
| 2026-04-27 09:38 | 31.73756 | 40.43419 | 40001 ft | 472 kts | 309° |
| 2026-04-27 09:38 | 31.77829 | 40.37410 | 40001 ft | 472 kts | 309° |
| 2026-04-27 09:39 | 31.81904 | 40.31347 | 40001 ft | 472 kts | 308° |
| 2026-04-27 09:39 | 31.85986 | 40.25276 | 40001 ft | 472 kts | 308° |
| 2026-04-27 09:40 | 31.90066 | 40.19248 | 40001 ft | 472 kts | 308° |
| 2026-04-27 09:40 | 31.94141 | 40.13233 | 40001 ft | 472 kts | 308° |
| 2026-04-27 09:41 | 31.98244 | 40.07178 | 40001 ft | 472 kts | 308° |
| 2026-04-27 09:41 | 32.02322 | 40.01161 | 40001 ft | 472 kts | 308° |
| 2026-04-27 09:42 | 32.06404 | 39.95139 | 40001 ft | 472 kts | 309° |
| 2026-04-27 09:42 | 32.10522 | 39.89062 | 40001 ft | 472 kts | 309° |
| 2026-04-27 09:43 | 32.14619 | 39.83041 | 40001 ft | 472 kts | 309° |
| 2026-04-27 09:43 | 32.18686 | 39.77042 | 40001 ft | 472 kts | 309° |
| 2026-04-27 09:44 | 32.22781 | 39.70999 | 40001 ft | 472 kts | 309° |
| 2026-04-27 09:44 | 32.26875 | 39.64959 | 40001 ft | 472 kts | 309° |
| 2026-04-27 09:45 | 32.30985 | 39.58894 | 40001 ft | 472 kts | 309° |
| 2026-04-27 09:45 | 32.35097 | 39.52827 | 40001 ft | 472 kts | 309° |
| 2026-04-27 09:46 | 32.39202 | 39.46770 | 40001 ft | 472 kts | 309° |
| 2026-04-27 09:46 | 32.43650 | 39.41168 | 40019 ft | 471 kts | 324° |
| 2026-04-27 09:47 | 32.48149 | 39.37090 | 40009 ft | 472 kts | 320° |
| 2026-04-27 09:47 | 32.53058 | 39.31997 | 39998 ft | 472 kts | 318° |
| 2026-04-27 09:48 | 32.57995 | 39.26825 | 40002 ft | 472 kts | 319° |
| 2026-04-27 09:48 | 32.62914 | 39.21691 | 40000 ft | 472 kts | 319° |
| 2026-04-27 09:49 | 32.67825 | 39.16569 | 40001 ft | 472 kts | 319° |
| 2026-04-27 09:49 | 32.72774 | 39.11406 | 40001 ft | 472 kts | 319° |
| 2026-04-27 09:50 | 32.77702 | 39.06267 | 40001 ft | 472 kts | 319° |
| 2026-04-27 09:50 | 32.82619 | 39.01138 | 40001 ft | 472 kts | 319° |
| 2026-04-27 09:51 | 32.87554 | 38.95992 | 40001 ft | 472 kts | 319° |
| 2026-04-27 09:51 | 32.92482 | 38.90853 | 40001 ft | 472 kts | 319° |
| 2026-04-27 09:52 | 32.97412 | 38.85710 | 40001 ft | 472 kts | 319° |
| 2026-04-27 09:52 | 33.02376 | 38.80533 | 40001 ft | 472 kts | 319° |
| 2026-04-27 09:53 | 33.07325 | 38.75372 | 40001 ft | 472 kts | 319° |
| 2026-04-27 09:53 | 33.12426 | 38.70460 | 39999 ft | 472 kts | 320° |
| 2026-04-27 09:54 | 33.17003 | 38.64923 | 40003 ft | 472 kts | 309° |
| 2026-04-27 09:54 | 33.20507 | 38.58335 | 40004 ft | 471 kts | 289° |
| 2026-04-27 09:54 | 33.21209 | 38.54516 | 40027 ft | 471 kts | 276° |
| 2026-04-27 09:55 | 33.21584 | 38.50605 | 39992 ft | 473 kts | 278° |
| 2026-04-27 09:55 | 33.23408 | 38.39128 | 40001 ft | 471 kts | 284° |
| 2026-04-27 09:56 | 33.25108 | 38.31520 | 40001 ft | 472 kts | 286° |
| 2026-04-27 09:56 | 33.27157 | 38.24089 | 40001 ft | 472 kts | 290° |
| 2026-04-27 09:57 | 33.29628 | 38.16888 | 40001 ft | 472 kts | 294° |
| 2026-04-27 09:57 | 33.32570 | 38.09869 | 40001 ft | 472 kts | 299° |
| 2026-04-27 09:58 | 33.35962 | 38.03198 | 40001 ft | 472 kts | 304° |
| 2026-04-27 09:58 | 33.39861 | 37.96871 | 40001 ft | 472 kts | 309° |
| 2026-04-27 09:59 | 33.44231 | 37.91057 | 40001 ft | 472 kts | 315° |
| 2026-04-27 09:59 | 33.49146 | 37.85789 | 40001 ft | 472 kts | 322° |
| 2026-04-27 10:00 | 33.54546 | 37.81278 | 40001 ft | 472 kts | 329° |
| 2026-04-27 10:00 | 33.60361 | 37.77720 | 40001 ft | 472 kts | 338° |
| 2026-04-27 10:01 | 33.66604 | 37.75171 | 39998 ft | 472 kts | 339° |
| 2026-04-27 10:01 | 33.69447 | 37.73287 | 40019 ft | 470 kts | 320° |
| 2026-04-27 10:01 | 33.71621 | 37.70360 | 40020 ft | 471 kts | 300° |
| 2026-04-27 10:02 | 33.72826 | 37.66721 | 40023 ft | 473 kts | 281° |
| 2026-04-27 10:02 | 33.73435 | 37.62866 | 39996 ft | 473 kts | 287° |
| 2026-04-27 10:02 | 33.74762 | 37.59228 | 40034 ft | 471 kts | 302° |
| 2026-04-27 10:02 | 33.76575 | 37.55967 | 39991 ft | 473 kts | 305° |
| 2026-04-27 10:03 | 33.80369 | 37.49524 | 40004 ft | 472 kts | 306° |
| 2026-04-27 10:03 | 33.84707 | 37.43652 | 40015 ft | 470 kts | 328° |
| 2026-04-27 10:04 | 33.87664 | 37.42086 | 40016 ft | 471 kts | 348° |
| 2026-04-27 10:04 | 33.90919 | 37.41844 | 40019 ft | 472 kts | 9° |
| 2026-04-27 10:04 | 33.94076 | 37.43005 | 40015 ft | 472 kts | 29° |
| 2026-04-27 10:04 | 33.96657 | 37.45398 | 40013 ft | 472 kts | 50° |
| 2026-04-27 10:05 | 33.98453 | 37.48651 | 40018 ft | 472 kts | 63° |
| 2026-04-27 10:05 | 33.99905 | 37.52210 | 39997 ft | 473 kts | 65° |
| 2026-04-27 10:05 | 34.02110 | 37.59649 | 40004 ft | 471 kts | 84° |
| 2026-04-27 10:06 | 34.02014 | 37.63586 | 40015 ft | 471 kts | 104° |
| 2026-04-27 10:06 | 34.00786 | 37.67251 | 40018 ft | 472 kts | 124° |
| 2026-04-27 10:06 | 33.96855 | 37.73566 | 40007 ft | 472 kts | 123° |
| 2026-04-27 10:07 | 33.93345 | 37.80244 | 39999 ft | 472 kts | 122° |
| 2026-04-27 10:07 | 33.89840 | 37.86931 | 40001 ft | 472 kts | 122° |
| 2026-04-27 10:08 | 33.86250 | 37.93494 | 39998 ft | 471 kts | 132° |
| 2026-04-27 10:08 | 33.83746 | 37.95999 | 40019 ft | 470 kts | 152° |
| 2026-04-27 10:08 | 33.80658 | 37.97337 | 40020 ft | 472 kts | 172° |
| 2026-04-27 10:09 | 33.77412 | 37.97321 | 40022 ft | 473 kts | 192° |
| 2026-04-27 10:09 | 33.74347 | 37.95975 | 40019 ft | 472 kts | 212° |
| 2026-04-27 10:09 | 33.71841 | 37.93453 | 40019 ft | 472 kts | 232° |
| 2026-04-27 10:09 | 33.70202 | 37.90074 | 40021 ft | 471 kts | 251° |
| 2026-04-27 10:10 | 33.69430 | 37.86227 | 40014 ft | 473 kts | 263° |
| 2026-04-27 10:10 | 33.69434 | 37.82305 | 40022 ft | 471 kts | 281° |
| 2026-04-27 10:10 | 33.70314 | 37.78523 | 40005 ft | 473 kts | 294° |
| 2026-04-27 10:10 | 33.71979 | 37.75135 | 40029 ft | 472 kts | 306° |
| 2026-04-27 10:11 | 33.75862 | 37.68827 | 39998 ft | 472 kts | 306° |
| 2026-04-27 10:11 | 33.79754 | 37.62461 | 40001 ft | 472 kts | 306° |
| 2026-04-27 10:12 | 33.83665 | 37.56063 | 40001 ft | 472 kts | 307° |
| 2026-04-27 10:12 | 33.87528 | 37.49742 | 40001 ft | 472 kts | 307° |
| 2026-04-27 10:13 | 33.91433 | 37.43351 | 40001 ft | 472 kts | 307° |
| 2026-04-27 10:13 | 33.95299 | 37.37022 | 40001 ft | 472 kts | 307° |
| 2026-04-27 10:14 | 33.99195 | 37.30631 | 40001 ft | 472 kts | 306° |
| 2026-04-27 10:14 | 34.03071 | 37.24258 | 40001 ft | 472 kts | 306° |
| 2026-04-27 10:15 | 34.06945 | 37.17887 | 40001 ft | 472 kts | 306° |
| 2026-04-27 10:15 | 34.10817 | 37.11520 | 40001 ft | 472 kts | 306° |
| 2026-04-27 10:16 | 34.14734 | 37.05109 | 40001 ft | 472 kts | 306° |
| 2026-04-27 10:16 | 34.18632 | 36.98732 | 40001 ft | 472 kts | 306° |
| 2026-04-27 10:17 | 34.22528 | 36.92357 | 40001 ft | 472 kts | 306° |
| 2026-04-27 10:17 | 34.26415 | 36.85994 | 40001 ft | 472 kts | 306° |
| 2026-04-27 10:18 | 34.30312 | 36.79613 | 40001 ft | 472 kts | 307° |
| 2026-04-27 10:18 | 34.34220 | 36.73211 | 40001 ft | 472 kts | 307° |
| 2026-04-27 10:19 | 34.38122 | 36.66819 | 40001 ft | 472 kts | 307° |
| 2026-04-27 10:19 | 34.42026 | 36.60421 | 40001 ft | 472 kts | 307° |
| 2026-04-27 10:20 | 34.45912 | 36.54050 | 40001 ft | 472 kts | 307° |
| 2026-04-27 10:20 | 34.49819 | 36.47643 | 40001 ft | 472 kts | 307° |
| 2026-04-27 10:21 | 34.53703 | 36.41272 | 40001 ft | 472 kts | 307° |
| 2026-04-27 10:21 | 34.57619 | 36.34846 | 40001 ft | 472 kts | 306° |
| 2026-04-27 10:22 | 34.61518 | 36.28430 | 40001 ft | 472 kts | 306° |
| 2026-04-27 10:22 | 34.65403 | 36.22028 | 40000 ft | 472 kts | 306° |
| 2026-04-27 10:23 | 34.69303 | 36.15600 | 40001 ft | 472 kts | 306° |
| 2026-04-27 10:23 | 34.73186 | 36.09198 | 40001 ft | 472 kts | 306° |
| 2026-04-27 10:24 | 34.77075 | 36.02784 | 40001 ft | 472 kts | 306° |
| 2026-04-27 10:24 | 34.80970 | 35.96357 | 40001 ft | 472 kts | 306° |
| 2026-04-27 10:25 | 34.84888 | 35.89893 | 40001 ft | 472 kts | 306° |
| 2026-04-27 10:25 | 34.88771 | 35.83482 | 40001 ft | 472 kts | 306° |
| 2026-04-27 10:26 | 34.92673 | 35.77039 | 40001 ft | 472 kts | 307° |
| 2026-04-27 10:26 | 34.96547 | 35.70639 | 40001 ft | 472 kts | 307° |
| 2026-04-27 10:27 | 35.00447 | 35.64195 | 40001 ft | 472 kts | 307° |
| 2026-04-27 10:27 | 35.04362 | 35.57725 | 40001 ft | 472 kts | 307° |
| 2026-04-27 10:28 | 35.08239 | 35.51315 | 40001 ft | 472 kts | 307° |
| 2026-04-27 10:28 | 35.12155 | 35.44850 | 40001 ft | 472 kts | 307° |
| 2026-04-27 10:29 | 35.16068 | 35.38416 | 40001 ft | 472 kts | 307° |
| 2026-04-27 10:29 | 35.19923 | 35.31917 | 40002 ft | 472 kts | 303° |
| 2026-04-27 10:30 | 35.23517 | 35.25255 | 40001 ft | 472 kts | 304° |
| 2026-04-27 10:30 | 35.27195 | 35.18567 | 40001 ft | 472 kts | 304° |
| 2026-04-27 10:31 | 35.30852 | 35.11926 | 40001 ft | 472 kts | 304° |
| 2026-04-27 10:31 | 35.34531 | 35.05246 | 40001 ft | 472 kts | 304° |
| 2026-04-27 10:32 | 35.38195 | 34.98594 | 40001 ft | 472 kts | 304° |
| 2026-04-27 10:32 | 35.41861 | 34.91939 | 40001 ft | 472 kts | 304° |
| 2026-04-27 10:33 | 35.45547 | 34.85246 | 40001 ft | 472 kts | 304° |
| 2026-04-27 10:33 | 35.49219 | 34.78581 | 40001 ft | 472 kts | 304° |
| 2026-04-27 10:34 | 35.52888 | 34.71917 | 40001 ft | 472 kts | 304° |
| 2026-04-27 10:34 | 35.56572 | 34.65230 | 40001 ft | 472 kts | 304° |
| 2026-04-27 10:35 | 35.60254 | 34.58545 | 40001 ft | 472 kts | 304° |
| 2026-04-27 10:35 | 35.63930 | 34.51869 | 40001 ft | 472 kts | 304° |
| 2026-04-27 10:36 | 35.67601 | 34.45204 | 40001 ft | 472 kts | 304° |
| 2026-04-27 10:36 | 35.71283 | 34.38518 | 40001 ft | 472 kts | 304° |
| 2026-04-27 10:37 | 35.74938 | 34.31840 | 40001 ft | 472 kts | 303° |
| 2026-04-27 10:37 | 35.78590 | 34.25141 | 40001 ft | 472 kts | 304° |
| 2026-04-27 10:38 | 35.82297 | 34.18408 | 40001 ft | 472 kts | 304° |
| 2026-04-27 10:38 | 35.85149 | 34.11269 | 40025 ft | 471 kts | 282° |
| 2026-04-27 10:39 | 35.87200 | 34.03523 | 39997 ft | 473 kts | 290° |
| 2026-04-27 10:39 | 35.89469 | 33.95984 | 40002 ft | 472 kts | 290° |
| 2026-04-27 10:40 | 35.91783 | 33.88402 | 40001 ft | 472 kts | 292° |
| 2026-04-27 10:40 | 35.94268 | 33.80886 | 40001 ft | 472 kts | 292° |
| 2026-04-27 10:41 | 35.96745 | 33.73384 | 40001 ft | 472 kts | 292° |
| 2026-04-27 10:41 | 35.99224 | 33.65876 | 40001 ft | 472 kts | 292° |
| 2026-04-27 10:42 | 36.01702 | 33.58366 | 40001 ft | 472 kts | 292° |
| 2026-04-27 10:42 | 36.04176 | 33.50866 | 40001 ft | 472 kts | 292° |
| 2026-04-27 10:43 | 36.06642 | 33.43387 | 40001 ft | 472 kts | 292° |
| 2026-04-27 10:43 | 36.09121 | 33.35864 | 40001 ft | 472 kts | 292° |
| 2026-04-27 10:44 | 36.11607 | 33.28332 | 40001 ft | 472 kts | 292° |
| 2026-04-27 10:44 | 36.14103 | 33.20803 | 40001 ft | 472 kts | 292° |
| 2026-04-27 10:45 | 36.16583 | 33.13318 | 40001 ft | 472 kts | 292° |
| 2026-04-27 10:45 | 36.19030 | 33.05930 | 40001 ft | 472 kts | 292° |
| 2026-04-27 10:46 | 36.21516 | 32.98421 | 40001 ft | 472 kts | 292° |
| 2026-04-27 10:46 | 36.24001 | 32.90914 | 40001 ft | 472 kts | 292° |
| 2026-04-27 10:47 | 36.26488 | 32.83398 | 40001 ft | 472 kts | 292° |
| 2026-04-27 10:47 | 36.28977 | 32.75873 | 40001 ft | 472 kts | 292° |
| 2026-04-27 10:48 | 36.31465 | 32.68348 | 40001 ft | 472 kts | 292° |
| 2026-04-27 10:48 | 36.33958 | 32.60804 | 40001 ft | 472 kts | 292° |
| 2026-04-27 10:49 | 36.36433 | 32.53314 | 40001 ft | 472 kts | 292° |
| 2026-04-27 10:49 | 36.38929 | 32.45755 | 40001 ft | 472 kts | 292° |
| 2026-04-27 10:50 | 36.41414 | 32.38229 | 40001 ft | 472 kts | 292° |
| 2026-04-27 10:50 | 36.43889 | 32.30722 | 40001 ft | 472 kts | 292° |
| 2026-04-27 10:51 | 36.46368 | 32.23184 | 40001 ft | 472 kts | 292° |
| 2026-04-27 10:51 | 36.48848 | 32.15641 | 40001 ft | 472 kts | 292° |
| 2026-04-27 10:52 | 36.51336 | 32.08071 | 40001 ft | 472 kts | 292° |
| 2026-04-27 10:52 | 36.53812 | 32.00532 | 40001 ft | 472 kts | 292° |
| 2026-04-27 10:53 | 36.57540 | 31.89182 | 40001 ft | 472 kts | 292° |
| 2026-04-27 10:54 | 36.60030 | 31.81594 | 40001 ft | 472 kts | 292° |
| 2026-04-27 10:54 | 36.62503 | 31.74055 | 40001 ft | 472 kts | 292° |
| 2026-04-27 10:55 | 36.64981 | 31.66500 | 40001 ft | 472 kts | 292° |
| 2026-04-27 10:55 | 36.67477 | 31.58885 | 40001 ft | 472 kts | 292° |
| 2026-04-27 10:56 | 36.69939 | 31.51372 | 40001 ft | 472 kts | 292° |
| 2026-04-27 10:56 | 36.72429 | 31.43772 | 40001 ft | 472 kts | 292° |
| 2026-04-27 10:57 | 36.74907 | 31.36205 | 40001 ft | 472 kts | 292° |
| 2026-04-27 10:57 | 36.77378 | 31.28643 | 40001 ft | 472 kts | 292° |
| 2026-04-27 10:58 | 36.79845 | 31.21078 | 40001 ft | 472 kts | 292° |
| 2026-04-27 10:58 | 36.82323 | 31.13480 | 40001 ft | 472 kts | 292° |
| 2026-04-27 10:59 | 36.84793 | 31.05902 | 40001 ft | 472 kts | 292° |
| 2026-04-27 10:59 | 36.87286 | 30.98248 | 40001 ft | 472 kts | 292° |
| 2026-04-27 11:00 | 36.90988 | 30.86882 | 40001 ft | 472 kts | 292° |
| 2026-04-27 11:00 | 36.93500 | 30.79292 | 40001 ft | 472 kts | 295° |
| 2026-04-27 11:01 | 36.96364 | 30.71901 | 40001 ft | 472 kts | 296° |
| 2026-04-27 11:01 | 36.99240 | 30.64537 | 40001 ft | 472 kts | 296° |
| 2026-04-27 11:02 | 37.02140 | 30.57114 | 40001 ft | 472 kts | 296° |
| 2026-04-27 11:02 | 37.05015 | 30.49748 | 40001 ft | 472 kts | 296° |
| 2026-04-27 11:03 | 37.07899 | 30.42355 | 40001 ft | 472 kts | 296° |
| 2026-04-27 11:03 | 37.10774 | 30.34990 | 40001 ft | 472 kts | 296° |
| 2026-04-27 11:04 | 37.13669 | 30.27602 | 40001 ft | 472 kts | 296° |
| 2026-04-27 11:04 | 37.16560 | 30.20221 | 40001 ft | 472 kts | 296° |
| 2026-04-27 11:05 | 37.19456 | 30.12821 | 40001 ft | 472 kts | 296° |
| 2026-04-27 11:05 | 37.22334 | 30.05466 | 40001 ft | 472 kts | 296° |
| 2026-04-27 11:06 | 37.25237 | 29.98042 | 40001 ft | 472 kts | 296° |
| 2026-04-27 11:06 | 37.28121 | 29.90665 | 40001 ft | 472 kts | 296° |
| 2026-04-27 11:07 | 37.31009 | 29.83275 | 40001 ft | 472 kts | 296° |
| 2026-04-27 11:07 | 37.33911 | 29.75840 | 40001 ft | 472 kts | 296° |
| 2026-04-27 11:08 | 37.36796 | 29.68449 | 40001 ft | 472 kts | 296° |
| 2026-04-27 11:08 | 37.39677 | 29.61064 | 40001 ft | 472 kts | 296° |
| 2026-04-27 11:09 | 37.42573 | 29.53635 | 40001 ft | 472 kts | 296° |
| 2026-04-27 11:09 | 37.45455 | 29.46238 | 40001 ft | 472 kts | 296° |
| 2026-04-27 11:10 | 37.48352 | 29.38799 | 40001 ft | 472 kts | 296° |
| 2026-04-27 11:10 | 37.51239 | 29.31375 | 40001 ft | 472 kts | 296° |
| 2026-04-27 11:11 | 37.54121 | 29.23942 | 40001 ft | 472 kts | 296° |
| 2026-04-27 11:11 | 37.57006 | 29.16498 | 40001 ft | 472 kts | 296° |
| 2026-04-27 11:12 | 37.59893 | 29.09045 | 40001 ft | 472 kts | 296° |
| 2026-04-27 11:12 | 37.62765 | 29.01626 | 40001 ft | 472 kts | 296° |
| 2026-04-27 11:13 | 37.65633 | 28.94215 | 40001 ft | 472 kts | 296° |
| 2026-04-27 11:13 | 37.68508 | 28.86781 | 40001 ft | 472 kts | 296° |
| 2026-04-27 11:14 | 37.71389 | 28.79325 | 40001 ft | 472 kts | 296° |
| 2026-04-27 11:14 | 37.74270 | 28.71868 | 40001 ft | 472 kts | 296° |
| 2026-04-27 11:15 | 37.77076 | 28.64420 | 40001 ft | 472 kts | 295° |
| 2026-04-27 11:15 | 37.79863 | 28.56862 | 40001 ft | 472 kts | 295° |
| 2026-04-27 11:16 | 37.82630 | 28.49354 | 40001 ft | 472 kts | 295° |
| 2026-04-27 11:16 | 37.85387 | 28.41872 | 40000 ft | 472 kts | 295° |
| 2026-04-27 11:17 | 37.88166 | 28.34326 | 40001 ft | 472 kts | 295° |
| 2026-04-27 11:17 | 37.90927 | 28.26806 | 40001 ft | 472 kts | 295° |
| 2026-04-27 11:18 | 37.93682 | 28.19294 | 40001 ft | 472 kts | 295° |
| 2026-04-27 11:18 | 37.96454 | 28.11728 | 40001 ft | 472 kts | 295° |
| 2026-04-27 11:19 | 37.99215 | 28.04191 | 40001 ft | 472 kts | 295° |
| 2026-04-27 11:19 | 38.01988 | 27.96617 | 40001 ft | 472 kts | 295° |
| 2026-04-27 11:20 | 38.04750 | 27.89066 | 40001 ft | 472 kts | 295° |
| 2026-04-27 11:20 | 38.07794 | 27.81707 | 40004 ft | 472 kts | 303° |
| 2026-04-27 11:21 | 38.11424 | 27.74795 | 40000 ft | 472 kts | 304° |
| 2026-04-27 11:21 | 38.15085 | 27.67887 | 40001 ft | 472 kts | 304° |
| 2026-04-27 11:22 | 38.18753 | 27.60962 | 40001 ft | 472 kts | 304° |
| 2026-04-27 11:22 | 38.22434 | 27.54009 | 40001 ft | 472 kts | 304° |
| 2026-04-27 11:23 | 38.26087 | 27.47103 | 40001 ft | 472 kts | 304° |
| 2026-04-27 11:23 | 38.29745 | 27.40184 | 40001 ft | 472 kts | 304° |
| 2026-04-27 11:24 | 38.33411 | 27.33246 | 40001 ft | 472 kts | 303° |
| 2026-04-27 11:24 | 38.37056 | 27.26321 | 40001 ft | 472 kts | 303° |
| 2026-04-27 11:25 | 38.40711 | 27.19372 | 40001 ft | 472 kts | 303° |
| 2026-04-27 11:25 | 38.44352 | 27.12446 | 40001 ft | 472 kts | 304° |
| 2026-04-27 11:26 | 38.48025 | 27.05454 | 40001 ft | 472 kts | 304° |
| 2026-04-27 11:26 | 38.51659 | 26.98533 | 40001 ft | 472 kts | 304° |
| 2026-04-27 11:27 | 38.55313 | 26.91569 | 40001 ft | 472 kts | 304° |
| 2026-04-27 11:27 | 38.58984 | 26.84568 | 40001 ft | 472 kts | 304° |
| 2026-04-27 11:28 | 38.62624 | 26.77622 | 40001 ft | 472 kts | 304° |
| 2026-04-27 11:28 | 38.66275 | 26.70651 | 40001 ft | 472 kts | 304° |
| 2026-04-27 11:29 | 38.69933 | 26.63662 | 40001 ft | 472 kts | 304° |
| 2026-04-27 11:29 | 38.73558 | 26.56731 | 40001 ft | 472 kts | 304° |
| 2026-04-27 11:30 | 38.77224 | 26.49719 | 40001 ft | 472 kts | 304° |
| 2026-04-27 11:30 | 38.80864 | 26.42752 | 40001 ft | 472 kts | 304° |
| 2026-04-27 11:31 | 38.84518 | 26.35751 | 40001 ft | 472 kts | 304° |
| 2026-04-27 11:31 | 38.86107 | 26.32085 | 40005 ft | 471 kts | 290° |
| 2026-04-27 11:31 | 38.87157 | 26.28088 | 39998 ft | 473 kts | 290° |
| 2026-04-27 11:32 | 38.89911 | 26.20444 | 40001 ft | 472 kts | 297° |
| 2026-04-27 11:32 | 38.93727 | 26.13744 | 40028 ft | 471 kts | 319° |
| 2026-04-27 11:33 | 38.98291 | 26.07709 | 39998 ft | 473 kts | 309° |
| 2026-04-27 11:33 | 39.02479 | 26.01144 | 40002 ft | 472 kts | 309° |
| 2026-04-27 11:34 | 39.06572 | 25.94613 | 40001 ft | 472 kts | 309° |
| 2026-04-27 11:34 | 39.10685 | 25.88026 | 40001 ft | 472 kts | 309° |
| 2026-04-27 11:35 | 39.14798 | 25.81461 | 40001 ft | 472 kts | 309° |
| 2026-04-27 11:35 | 39.18928 | 25.74843 | 40001 ft | 472 kts | 309° |
| 2026-04-27 11:36 | 39.23033 | 25.68263 | 40001 ft | 472 kts | 309° |
| 2026-04-27 11:36 | 39.27164 | 25.61639 | 40001 ft | 472 kts | 309° |
| 2026-04-27 11:37 | 39.31286 | 25.55030 | 40001 ft | 472 kts | 309° |
| 2026-04-27 11:37 | 39.35391 | 25.48449 | 40001 ft | 472 kts | 309° |
| 2026-04-27 11:38 | 39.39520 | 25.41828 | 40001 ft | 472 kts | 309° |
| 2026-04-27 11:38 | 39.43640 | 25.35223 | 40001 ft | 472 kts | 309° |
| 2026-04-27 11:39 | 39.47727 | 25.28567 | 40001 ft | 472 kts | 308° |
| 2026-04-27 11:39 | 39.51828 | 25.21964 | 40001 ft | 472 kts | 309° |
| 2026-04-27 11:40 | 39.55961 | 25.15332 | 40001 ft | 472 kts | 309° |
| 2026-04-27 11:40 | 39.60077 | 25.08732 | 40001 ft | 472 kts | 309° |
| 2026-04-27 11:41 | 39.64206 | 25.02112 | 40001 ft | 472 kts | 309° |
| 2026-04-27 11:41 | 39.68336 | 24.95490 | 40001 ft | 472 kts | 309° |
| 2026-04-27 11:42 | 39.72472 | 24.88857 | 40001 ft | 472 kts | 309° |
| 2026-04-27 11:42 | 39.76609 | 24.82225 | 40001 ft | 472 kts | 309° |
| 2026-04-27 11:43 | 39.80720 | 24.75634 | 40001 ft | 472 kts | 309° |
| 2026-04-27 11:43 | 39.84852 | 24.69008 | 40001 ft | 472 kts | 309° |
| 2026-04-27 11:44 | 39.89007 | 24.62347 | 40001 ft | 472 kts | 309° |
| 2026-04-27 11:44 | 39.93156 | 24.55695 | 40002 ft | 472 kts | 309° |
| 2026-04-27 11:45 | 39.96582 | 24.50201 | 40001 ft | 472 kts | 309° |
| 2026-04-27 11:45 | 40.01405 | 24.42469 | 40001 ft | 472 kts | 309° |
| 2026-04-27 11:46 | 40.05546 | 24.35828 | 40001 ft | 472 kts | 309° |
| 2026-04-27 11:46 | 40.09672 | 24.29112 | 40001 ft | 472 kts | 309° |
| 2026-04-27 11:47 | 40.13796 | 24.22495 | 40001 ft | 472 kts | 309° |
| 2026-04-27 11:47 | 40.17949 | 24.15837 | 40001 ft | 472 kts | 309° |
| 2026-04-27 11:48 | 40.22098 | 24.09185 | 40001 ft | 472 kts | 309° |
| 2026-04-27 11:48 | 40.26235 | 24.02553 | 40001 ft | 472 kts | 309° |
| 2026-04-27 11:49 | 40.30386 | 23.95897 | 40001 ft | 472 kts | 309° |
| 2026-04-27 11:49 | 40.34543 | 23.89232 | 40001 ft | 472 kts | 309° |
| 2026-04-27 11:50 | 40.38677 | 23.82604 | 40001 ft | 472 kts | 309° |
| 2026-04-27 11:50 | 40.42826 | 23.75952 | 40001 ft | 472 kts | 309° |
| 2026-04-27 11:51 | 40.47004 | 23.69253 | 40001 ft | 472 kts | 309° |
| 2026-04-27 11:52 | 40.53227 | 23.59276 | 40001 ft | 472 kts | 309° |
| 2026-04-27 11:52 | 40.57406 | 23.52574 | 40001 ft | 472 kts | 309° |
| 2026-04-27 11:53 | 40.61560 | 23.45915 | 40001 ft | 472 kts | 310° |
| 2026-04-27 11:53 | 40.66357 | 23.40162 | 40023 ft | 471 kts | 334° |
| 2026-04-27 11:54 | 40.72037 | 23.35806 | 40005 ft | 473 kts | 325° |
| 2026-04-27 11:54 | 40.77336 | 23.30722 | 39999 ft | 472 kts | 323° |
| 2026-04-27 11:55 | 40.82632 | 23.25606 | 40002 ft | 472 kts | 323° |
| 2026-04-27 11:55 | 40.87934 | 23.20486 | 40000 ft | 472 kts | 323° |
| 2026-04-27 11:56 | 40.93228 | 23.15372 | 40001 ft | 472 kts | 324° |
| 2026-04-27 11:56 | 40.98536 | 23.10245 | 40001 ft | 472 kts | 324° |
| 2026-04-27 11:57 | 41.03841 | 23.05120 | 40001 ft | 472 kts | 324° |
| 2026-04-27 11:57 | 41.09152 | 22.99990 | 40001 ft | 472 kts | 324° |
| 2026-04-27 11:58 | 41.14457 | 22.94880 | 40001 ft | 472 kts | 324° |
| 2026-04-27 11:58 | 41.19735 | 22.89787 | 40001 ft | 472 kts | 324° |
| 2026-04-27 11:59 | 41.25067 | 22.84638 | 40001 ft | 472 kts | 324° |
| 2026-04-27 11:59 | 41.30365 | 22.79521 | 40001 ft | 472 kts | 324° |
| 2026-04-27 12:00 | 41.35668 | 22.74398 | 40001 ft | 472 kts | 324° |
| 2026-04-27 12:00 | 41.41009 | 22.69240 | 40001 ft | 472 kts | 324° |
| 2026-04-27 12:01 | 41.46302 | 22.64127 | 40001 ft | 472 kts | 324° |
| 2026-04-27 12:01 | 41.51612 | 22.58998 | 40001 ft | 472 kts | 324° |
| 2026-04-27 12:02 | 41.56942 | 22.53850 | 40001 ft | 472 kts | 324° |
| 2026-04-27 12:02 | 41.62278 | 22.48696 | 40001 ft | 472 kts | 324° |
| 2026-04-27 12:03 | 41.67577 | 22.43578 | 40001 ft | 472 kts | 324° |
| 2026-04-27 12:03 | 41.72883 | 22.38451 | 40001 ft | 472 kts | 324° |
| 2026-04-27 12:04 | 41.78221 | 22.33276 | 40001 ft | 472 kts | 323° |
| 2026-04-27 12:04 | 41.83498 | 22.28095 | 40001 ft | 472 kts | 324° |
| 2026-04-27 12:05 | 41.88809 | 22.22954 | 40001 ft | 472 kts | 324° |
| 2026-04-27 12:05 | 41.94155 | 22.17788 | 40001 ft | 472 kts | 324° |
| 2026-04-27 12:06 | 41.99451 | 22.12672 | 40001 ft | 472 kts | 324° |
| 2026-04-27 12:06 | 42.04803 | 22.07501 | 40001 ft | 472 kts | 324° |
| 2026-04-27 12:07 | 42.10116 | 22.02370 | 40001 ft | 472 kts | 324° |
| 2026-04-27 12:07 | 42.15455 | 21.97228 | 40001 ft | 472 kts | 324° |
| 2026-04-27 12:08 | 42.20817 | 21.92052 | 40001 ft | 472 kts | 324° |
| 2026-04-27 12:08 | 42.26161 | 21.86891 | 40001 ft | 472 kts | 324° |
| 2026-04-27 12:09 | 42.31471 | 21.81762 | 40001 ft | 472 kts | 324° |
| 2026-04-27 12:09 | 42.36829 | 21.76586 | 40001 ft | 472 kts | 324° |
| 2026-04-27 12:10 | 42.42152 | 21.71445 | 40001 ft | 472 kts | 324° |
| 2026-04-27 12:10 | 42.47487 | 21.66292 | 40001 ft | 472 kts | 324° |
| 2026-04-27 12:11 | 42.52895 | 21.61263 | 39997 ft | 472 kts | 334° |
| 2026-04-27 12:11 | 42.59005 | 21.58077 | 40005 ft | 473 kts | 336° |
| 2026-04-27 12:12 | 42.64961 | 21.54366 | 40000 ft | 472 kts | 335° |
| 2026-04-27 12:12 | 42.70938 | 21.50551 | 40001 ft | 472 kts | 335° |
| 2026-04-27 12:13 | 42.76866 | 21.46743 | 40001 ft | 472 kts | 335° |
| 2026-04-27 12:13 | 42.82778 | 21.42941 | 40000 ft | 472 kts | 335° |
| 2026-04-27 12:14 | 42.88725 | 21.39116 | 40001 ft | 472 kts | 335° |
| 2026-04-27 12:14 | 42.94646 | 21.35307 | 40001 ft | 472 kts | 335° |
| 2026-04-27 12:15 | 43.00575 | 21.31412 | 40001 ft | 472 kts | 334° |
| 2026-04-27 12:15 | 43.06511 | 21.27570 | 40001 ft | 472 kts | 334° |
| 2026-04-27 12:16 | 43.12458 | 21.23741 | 40001 ft | 472 kts | 335° |
| 2026-04-27 12:16 | 43.18373 | 21.19944 | 40001 ft | 472 kts | 335° |
| 2026-04-27 12:17 | 43.24333 | 21.16111 | 40001 ft | 472 kts | 335° |
| 2026-04-27 12:17 | 43.30244 | 21.12309 | 40001 ft | 472 kts | 335° |
| 2026-04-27 12:18 | 43.36195 | 21.08481 | 40001 ft | 472 kts | 335° |
| 2026-04-27 12:18 | 43.42134 | 21.04661 | 40001 ft | 472 kts | 335° |
| 2026-04-27 12:19 | 43.48055 | 21.00851 | 40001 ft | 472 kts | 335° |
| 2026-04-27 12:19 | 43.54026 | 20.97010 | 40001 ft | 472 kts | 335° |
| 2026-04-27 12:20 | 43.59956 | 20.93196 | 40001 ft | 472 kts | 335° |
| 2026-04-27 12:20 | 43.65904 | 20.89370 | 40001 ft | 472 kts | 335° |
| 2026-04-27 12:21 | 43.71837 | 20.85553 | 40001 ft | 472 kts | 335° |
| 2026-04-27 12:21 | 43.77819 | 20.81705 | 40001 ft | 472 kts | 335° |
| 2026-04-27 12:22 | 43.83735 | 20.77899 | 40001 ft | 472 kts | 335° |
| 2026-04-27 12:22 | 43.89722 | 20.74047 | 40001 ft | 472 kts | 335° |
| 2026-04-27 12:23 | 43.95639 | 20.70241 | 40001 ft | 472 kts | 335° |
| 2026-04-27 12:23 | 44.01619 | 20.66394 | 40001 ft | 472 kts | 335° |
| 2026-04-27 12:24 | 44.07581 | 20.62559 | 40001 ft | 472 kts | 335° |
| 2026-04-27 12:24 | 44.13517 | 20.58746 | 40001 ft | 472 kts | 335° |
| 2026-04-27 12:25 | 44.19487 | 20.54912 | 40001 ft | 472 kts | 335° |
| 2026-04-27 12:25 | 44.25418 | 20.51097 | 40001 ft | 472 kts | 335° |
| 2026-04-27 12:26 | 44.31411 | 20.47242 | 40001 ft | 472 kts | 335° |
| 2026-04-27 12:26 | 44.37363 | 20.43413 | 40001 ft | 472 kts | 335° |
| 2026-04-27 12:27 | 44.43321 | 20.39580 | 40001 ft | 472 kts | 335° |
| 2026-04-27 12:27 | 44.49260 | 20.35760 | 40001 ft | 472 kts | 336° |
| 2026-04-27 12:28 | 44.55190 | 20.31870 | 40001 ft | 472 kts | 335° |
| 2026-04-27 12:28 | 44.61139 | 20.28012 | 40001 ft | 472 kts | 335° |
| 2026-04-27 12:29 | 44.67118 | 20.24160 | 40001 ft | 472 kts | 335° |
| 2026-04-27 12:29 | 44.73089 | 20.20318 | 40001 ft | 472 kts | 335° |
| 2026-04-27 12:30 | 44.79070 | 20.16470 | 40001 ft | 472 kts | 335° |
| 2026-04-27 12:30 | 44.85030 | 20.12636 | 40001 ft | 472 kts | 335° |
| 2026-04-27 12:31 | 44.91000 | 20.08795 | 40001 ft | 472 kts | 335° |
| 2026-04-27 12:31 | 44.96967 | 20.04956 | 40001 ft | 472 kts | 335° |
| 2026-04-27 12:32 | 45.02913 | 20.01131 | 40001 ft | 472 kts | 335° |
| 2026-04-27 12:32 | 45.08875 | 19.97296 | 40001 ft | 472 kts | 335° |
| 2026-04-27 12:33 | 45.14855 | 19.93457 | 40001 ft | 472 kts | 335° |
| 2026-04-27 12:33 | 45.20827 | 19.89618 | 40001 ft | 472 kts | 335° |
| 2026-04-27 12:34 | 45.26829 | 19.85757 | 40001 ft | 472 kts | 335° |
| 2026-04-27 12:34 | 45.32775 | 19.81932 | 40001 ft | 472 kts | 336° |
| 2026-04-27 12:35 | 45.38745 | 19.78091 | 40001 ft | 472 kts | 336° |
| 2026-04-27 12:35 | 45.44744 | 19.74232 | 40001 ft | 472 kts | 336° |
| 2026-04-27 12:36 | 45.50725 | 19.70384 | 40001 ft | 472 kts | 336° |
| 2026-04-27 12:36 | 45.56706 | 19.66536 | 40001 ft | 472 kts | 336° |
| 2026-04-27 12:37 | 45.62714 | 19.62671 | 40001 ft | 472 kts | 336° |
| 2026-04-27 12:37 | 45.68669 | 19.58838 | 40001 ft | 472 kts | 336° |
| 2026-04-27 12:38 | 45.74672 | 19.54976 | 40001 ft | 472 kts | 336° |
| 2026-04-27 12:38 | 45.80663 | 19.51120 | 40001 ft | 472 kts | 336° |
| 2026-04-27 12:39 | 45.86657 | 19.47262 | 40001 ft | 472 kts | 336° |
| 2026-04-27 12:39 | 45.92660 | 19.43396 | 40001 ft | 472 kts | 336° |
| 2026-04-27 12:40 | 45.98611 | 19.39560 | 40001 ft | 472 kts | 336° |
| 2026-04-27 12:40 | 46.04619 | 19.35813 | 39996 ft | 472 kts | 343° |
| 2026-04-27 12:41 | 46.11076 | 19.33924 | 40006 ft | 473 kts | 348° |
| 2026-04-27 12:41 | 46.17473 | 19.32115 | 39977 ft | 473 kts | 349° |
| 2026-04-27 12:41 | 46.20710 | 19.31225 | 39759 ft | 474 kts | 349° |
| 2026-04-27 12:42 | 46.23940 | 19.30339 | 39512 ft | 472 kts | 349° |
| 2026-04-27 12:42 | 46.27152 | 19.29460 | 39270 ft | 471 kts | 349° |
| 2026-04-27 12:42 | 46.30381 | 19.28576 | 39029 ft | 470 kts | 349° |
| 2026-04-27 12:42 | 46.33570 | 19.27703 | 38796 ft | 471 kts | 349° |
| 2026-04-27 12:43 | 46.36787 | 19.26823 | 38559 ft | 472 kts | 349° |
| 2026-04-27 12:43 | 46.40019 | 19.25939 | 38319 ft | 471 kts | 349° |
| 2026-04-27 12:43 | 46.43236 | 19.25059 | 38081 ft | 471 kts | 349° |
| 2026-04-27 12:44 | 46.49651 | 19.23304 | 38000 ft | 471 kts | 349° |
| 2026-04-27 12:44 | 46.56128 | 19.21532 | 38000 ft | 473 kts | 349° |
| 2026-04-27 12:45 | 46.62546 | 19.19777 | 38001 ft | 472 kts | 349° |
| 2026-04-27 12:45 | 46.69020 | 19.18005 | 38000 ft | 472 kts | 349° |
| 2026-04-27 12:46 | 46.75470 | 19.16241 | 37685 ft | 473 kts | 349° |
| 2026-04-27 12:46 | 46.78702 | 19.15357 | 37442 ft | 472 kts | 349° |
| 2026-04-27 12:46 | 46.81938 | 19.14471 | 37201 ft | 470 kts | 349° |
| 2026-04-27 12:46 | 46.85165 | 19.13589 | 36965 ft | 471 kts | 349° |
| 2026-04-27 12:47 | 46.88369 | 19.12712 | 36731 ft | 471 kts | 349° |
| 2026-04-27 12:47 | 46.91584 | 19.11832 | 36494 ft | 471 kts | 349° |
| 2026-04-27 12:47 | 46.94791 | 19.10955 | 36256 ft | 471 kts | 349° |
| 2026-04-27 12:47 | 46.98044 | 19.10065 | 36028 ft | 471 kts | 349° |
| 2026-04-27 12:48 | 47.01255 | 19.09187 | 35808 ft | 472 kts | 349° |
| 2026-04-27 12:48 | 47.04463 | 19.08309 | 35571 ft | 473 kts | 349° |
| 2026-04-27 12:48 | 47.07696 | 19.07425 | 35331 ft | 473 kts | 349° |
| 2026-04-27 12:48 | 47.10916 | 19.06544 | 35092 ft | 473 kts | 349° |
| 2026-04-27 12:49 | 47.14159 | 19.05659 | 34852 ft | 474 kts | 349° |
| 2026-04-27 12:49 | 47.17424 | 19.04768 | 34611 ft | 474 kts | 349° |
| 2026-04-27 12:49 | 47.20625 | 19.03892 | 34374 ft | 475 kts | 349° |
| 2026-04-27 12:49 | 47.23856 | 19.03008 | 34135 ft | 475 kts | 349° |
| 2026-04-27 12:50 | 47.27122 | 19.02115 | 33893 ft | 476 kts | 349° |
| 2026-04-27 12:50 | 47.30392 | 19.01221 | 33652 ft | 476 kts | 349° |
| 2026-04-27 12:50 | 47.33654 | 19.00328 | 33411 ft | 477 kts | 349° |
| 2026-04-27 12:50 | 47.36895 | 18.99442 | 33172 ft | 477 kts | 349° |
| 2026-04-27 12:51 | 47.40145 | 18.98552 | 32933 ft | 478 kts | 349° |
| 2026-04-27 12:51 | 47.43422 | 18.97656 | 32692 ft | 478 kts | 349° |
| 2026-04-27 12:51 | 47.46655 | 18.96771 | 32454 ft | 479 kts | 349° |
| 2026-04-27 12:51 | 47.49918 | 18.95879 | 32213 ft | 479 kts | 349° |
| 2026-04-27 12:52 | 47.53218 | 18.94975 | 31996 ft | 479 kts | 349° |
| 2026-04-27 12:52 | 47.59758 | 18.93187 | 31996 ft | 482 kts | 349° |
| 2026-04-27 12:53 | 47.69642 | 18.90482 | 32002 ft | 481 kts | 349° |
| 2026-04-27 12:53 | 47.76208 | 18.88685 | 32000 ft | 481 kts | 349° |
| 2026-04-27 12:54 | 47.82789 | 18.86884 | 32001 ft | 481 kts | 349° |
| 2026-04-27 12:54 | 47.89344 | 18.85090 | 32001 ft | 481 kts | 349° |
| 2026-04-27 12:55 | 47.95892 | 18.83297 | 32001 ft | 481 kts | 349° |
| 2026-04-27 12:55 | 48.02266 | 18.80439 | 32012 ft | 480 kts | 327° |
| 2026-04-27 12:56 | 48.04815 | 18.77260 | 32009 ft | 481 kts | 314° |
| 2026-04-27 12:56 | 48.07144 | 18.73613 | 32000 ft | 481 kts | 314° |
| 2026-04-27 12:56 | 48.11781 | 18.66427 | 32001 ft | 481 kts | 314° |
| 2026-04-27 12:57 | 48.14093 | 18.62811 | 31435 ft | 486 kts | 314° |
| 2026-04-27 12:57 | 48.16418 | 18.59162 | 30210 ft | 488 kts | 314° |
| 2026-04-27 12:57 | 48.18720 | 18.55541 | 28877 ft | 479 kts | 314° |
| 2026-04-27 12:57 | 48.21014 | 18.51933 | 27725 ft | 474 kts | 314° |
| 2026-04-27 12:58 | 48.23191 | 18.48509 | 27303 ft | 435 kts | 314° |
| 2026-04-27 12:58 | 48.25206 | 18.45337 | 26907 ft | 402 kts | 314° |
| 2026-04-27 12:58 | 48.27059 | 18.42419 | 26613 ft | 372 kts | 314° |
| 2026-04-27 12:58 | 48.28776 | 18.39714 | 26354 ft | 350 kts | 314° |
| 2026-04-27 12:59 | 48.30413 | 18.37131 | 26095 ft | 337 kts | 314° |
| 2026-04-27 12:59 | 48.32008 | 18.34608 | 25829 ft | 328 kts | 313° |
| 2026-04-27 12:59 | 48.33552 | 18.32119 | 25549 ft | 323 kts | 313° |
| 2026-04-27 12:59 | 48.35112 | 18.29616 | 24868 ft | 330 kts | 313° |
| 2026-04-27 13:00 | 48.36655 | 18.27136 | 24145 ft | 327 kts | 313° |
| 2026-04-27 13:00 | 48.38200 | 18.24649 | 23426 ft | 320 kts | 313° |
| 2026-04-27 13:00 | 48.39679 | 18.22268 | 22749 ft | 313 kts | 313° |
| 2026-04-27 13:00 | 48.41163 | 18.19875 | 22074 ft | 308 kts | 313° |
| 2026-04-27 13:01 | 48.42610 | 18.17544 | 21421 ft | 303 kts | 313° |
| 2026-04-27 13:01 | 48.44029 | 18.15256 | 20656 ft | 302 kts | 313° |
| 2026-04-27 13:01 | 48.45441 | 18.12979 | 20047 ft | 295 kts | 313° |
| 2026-04-27 13:01 | 48.46832 | 18.10735 | 19558 ft | 286 kts | 313° |
| 2026-04-27 13:02 | 48.48174 | 18.08572 | 19181 ft | 285 kts | 313° |
| 2026-04-27 13:02 | 48.49533 | 18.06380 | 18803 ft | 285 kts | 313° |
| 2026-04-27 13:02 | 48.50873 | 18.04221 | 18446 ft | 283 kts | 313° |
| 2026-04-27 13:02 | 48.52214 | 18.02058 | 18099 ft | 281 kts | 313° |
| 2026-04-27 13:03 | 48.53553 | 17.99899 | 17759 ft | 280 kts | 313° |
| 2026-04-27 13:03 | 48.54861 | 17.97790 | 17431 ft | 278 kts | 313° |
| 2026-04-27 13:03 | 48.56176 | 17.95670 | 17103 ft | 276 kts | 313° |
| 2026-04-27 13:03 | 48.57496 | 17.93541 | 16775 ft | 274 kts | 313° |
| 2026-04-27 13:04 | 48.58791 | 17.91452 | 16454 ft | 273 kts | 313° |
| 2026-04-27 13:04 | 48.60078 | 17.89378 | 16135 ft | 271 kts | 313° |
| 2026-04-27 13:04 | 48.61375 | 17.87286 | 15814 ft | 270 kts | 313° |
| 2026-04-27 13:04 | 48.62648 | 17.85234 | 15498 ft | 268 kts | 313° |
| 2026-04-27 13:05 | 48.63920 | 17.83182 | 15183 ft | 267 kts | 313° |
| 2026-04-27 13:05 | 48.65186 | 17.81139 | 14870 ft | 266 kts | 313° |
| 2026-04-27 13:05 | 48.66460 | 17.79085 | 14554 ft | 264 kts | 313° |
| 2026-04-27 13:05 | 48.67706 | 17.77076 | 14246 ft | 263 kts | 313° |
| 2026-04-27 13:06 | 48.68956 | 17.75060 | 13936 ft | 262 kts | 313° |
| 2026-04-27 13:06 | 48.69951 | 17.73456 | 13690 ft | 261 kts | 313° |
| 2026-04-27 13:06 | 48.71193 | 17.71452 | 13382 ft | 260 kts | 313° |
| 2026-04-27 13:06 | 48.72425 | 17.69463 | 13077 ft | 258 kts | 313° |
| 2026-04-27 13:07 | 48.73649 | 17.67489 | 12775 ft | 257 kts | 313° |
| 2026-04-27 13:07 | 48.74873 | 17.65514 | 12472 ft | 256 kts | 313° |
| 2026-04-27 13:07 | 48.76097 | 17.63539 | 12169 ft | 255 kts | 313° |
| 2026-04-27 13:07 | 48.77307 | 17.61586 | 11869 ft | 254 kts | 313° |
| 2026-04-27 13:08 | 48.78512 | 17.59639 | 11571 ft | 252 kts | 313° |
| 2026-04-27 13:08 | 48.79713 | 17.57698 | 11274 ft | 251 kts | 313° |
| 2026-04-27 13:08 | 48.80901 | 17.55776 | 10980 ft | 250 kts | 313° |
| 2026-04-27 13:08 | 48.82101 | 17.53870 | 10688 ft | 249 kts | 316° |
| 2026-04-27 13:09 | 48.83317 | 17.52073 | 10583 ft | 246 kts | 316° |
| 2026-04-27 13:09 | 48.84546 | 17.50248 | 10489 ft | 248 kts | 316° |
| 2026-04-27 13:09 | 48.85781 | 17.48409 | 10258 ft | 246 kts | 316° |
| 2026-04-27 13:09 | 48.87003 | 17.46593 | 10103 ft | 245 kts | 316° |
| 2026-04-27 13:10 | 48.88221 | 17.44780 | 9985 ft | 245 kts | 316° |
| 2026-04-27 13:10 | 48.89435 | 17.42975 | 9878 ft | 244 kts | 316° |
| 2026-04-27 13:10 | 48.90658 | 17.41154 | 9777 ft | 244 kts | 316° |
| 2026-04-27 13:10 | 48.91883 | 17.39331 | 9562 ft | 246 kts | 316° |
| 2026-04-27 13:11 | 48.93013 | 17.37649 | 9292 ft | 244 kts | 316° |
| 2026-04-27 13:11 | 48.94220 | 17.35848 | 9017 ft | 243 kts | 316° |
| 2026-04-27 13:11 | 48.95425 | 17.34044 | 8748 ft | 241 kts | 315° |
| 2026-04-27 13:11 | 48.96597 | 17.32247 | 8486 ft | 240 kts | 315° |
| 2026-04-27 13:12 | 48.97788 | 17.30500 | 8216 ft | 239 kts | 318° |
| 2026-04-27 13:12 | 48.99054 | 17.28866 | 7951 ft | 238 kts | 320° |
| 2026-04-27 13:12 | 49.00318 | 17.27259 | 7681 ft | 237 kts | 320° |
| 2026-04-27 13:12 | 49.01594 | 17.25638 | 7407 ft | 236 kts | 320° |
| 2026-04-27 13:13 | 49.02854 | 17.24047 | 7138 ft | 235 kts | 320° |
| 2026-04-27 13:13 | 49.04118 | 17.22455 | 6867 ft | 234 kts | 320° |
| 2026-04-27 13:13 | 49.05336 | 17.20875 | 6713 ft | 230 kts | 319° |
| 2026-04-27 13:13 | 49.06591 | 17.19318 | 6723 ft | 227 kts | 322° |
| 2026-04-27 13:14 | 49.07795 | 17.17920 | 6678 ft | 208 kts | 322° |
| 2026-04-27 13:14 | 49.08890 | 17.16641 | 6635 ft | 193 kts | 322° |
| 2026-04-27 13:14 | 49.09959 | 17.15390 | 6541 ft | 192 kts | 322° |
| 2026-04-27 13:14 | 49.10959 | 17.14069 | 6372 ft | 190 kts | 305° |
| 2026-04-27 13:15 | 49.11409 | 17.12197 | 6195 ft | 191 kts | 275° |
| 2026-04-27 13:15 | 49.11506 | 17.10178 | 5950 ft | 190 kts | 276° |
| 2026-04-27 13:15 | 49.11689 | 17.08196 | 5686 ft | 189 kts | 279° |
| 2026-04-27 13:15 | 49.11893 | 17.06252 | 5466 ft | 180 kts | 278° |
| 2026-04-27 13:16 | 49.12054 | 17.04406 | 5212 ft | 170 kts | 277° |
| 2026-04-27 13:16 | 49.12209 | 17.02670 | 4941 ft | 160 kts | 278° |
| 2026-04-27 13:16 | 49.12357 | 17.01020 | 4696 ft | 152 kts | 278° |
| 2026-04-27 13:16 | 49.12498 | 16.99443 | 4486 ft | 150 kts | 278° |
| 2026-04-27 13:17 | 49.12640 | 16.97853 | 4279 ft | 150 kts | 278° |
| 2026-04-27 13:17 | 49.12779 | 16.96292 | 4073 ft | 149 kts | 278° |
| 2026-04-27 13:17 | 49.12918 | 16.94734 | 3880 ft | 149 kts | 278° |
| 2026-04-27 13:17 | 49.13057 | 16.93166 | 3664 ft | 148 kts | 278° |
| 2026-04-27 13:18 | 49.13195 | 16.91607 | 3453 ft | 147 kts | 278° |
| 2026-04-27 13:18 | 49.13332 | 16.90059 | 3247 ft | 147 kts | 278° |
| 2026-04-27 13:18 | 49.13466 | 16.88531 | 3045 ft | 146 kts | 278° |
| 2026-04-27 13:18 | 49.13602 | 16.86986 | 2842 ft | 146 kts | 278° |
| 2026-04-27 13:19 | 49.13736 | 16.85457 | 2642 ft | 146 kts | 277° |
| 2026-04-27 13:19 | 49.13872 | 16.83915 | 2441 ft | 145 kts | 277° |
| 2026-04-27 13:19 | 49.14005 | 16.82392 | 2243 ft | 145 kts | 277° |
| 2026-04-27 13:19 | 49.14138 | 16.80869 | 2045 ft | 144 kts | 277° |
| 2026-04-27 13:20 | 49.14270 | 16.79356 | 1850 ft | 144 kts | 277° |
| 2026-04-27 13:20 | 49.14402 | 16.77833 | 1654 ft | 143 kts | 277° |
| 2026-04-27 13:20 | 49.14534 | 16.76321 | 1460 ft | 143 kts | 277° |
| 2026-04-27 13:20 | 49.14663 | 16.74829 | 1270 ft | 143 kts | 277° |
| 2026-04-27 13:21 | 49.14793 | 16.73327 | 1079 ft | 142 kts | 277° |
| 2026-04-27 13:21 | 49.14922 | 16.71825 | 891 ft | 142 kts | 277° |
| 2026-04-27 13:21 | 49.15050 | 16.70348 | 768 ft | 136 kts | 278° |
| 2026-04-27 13:21 | 49.15152 | 16.69165 | 780 ft | 76 kts | 283° |
| 2026-04-27 13:22 | 49.15192 | 16.68451 | 780 ft | 65 kts | 292° |
| 2026-04-27 13:22 | 49.15249 | 16.68076 | 777 ft | 6 kts | 276° |
| 2026-04-27 13:22 | 49.15253 | 16.68013 | 775 ft | 12 kts | 276° |
| 2026-04-27 13:22 | 49.15261 | 16.67910 | 774 ft | 6 kts | 277° |
| 2026-04-27 13:23 | 49.15267 | 16.67841 | 771 ft | 7 kts | 277° |
| 2026-04-27 13:23 | 49.15281 | 16.67708 | 771 ft | 13 kts | 290° |
| 2026-04-27 13:23 | 49.15381 | 16.67624 | 771 ft | 22 kts | 0° |
| 2026-04-27 13:23 | 49.15453 | 16.67799 | 773 ft | 21 kts | 104° |
| 2026-04-27 13:24 | 49.15438 | 16.67983 | 777 ft | 22 kts | 97° |
| 2026-04-27 13:24 | 49.15420 | 16.68210 | 780 ft | 20 kts | 97° |
| 2026-04-27 13:24 | 49.15403 | 16.68410 | 783 ft | 17 kts | 97° |
| 2026-04-27 13:24 | 49.15390 | 16.68568 | 785 ft | 13 kts | 98° |
| 2026-04-27 13:25 | 49.15405 | 16.68709 | 785 ft | 11 kts | 41° |
| 2026-04-27 13:25 | 49.15463 | 16.68740 | 786 ft | 6 kts | 9° |
| 2026-04-27 13:25 | 49.15519 | 16.68753 | 787 ft | 7 kts | 8° |
| 2026-04-27 13:25 | 49.15595 | 16.68756 | 789 ft | 6 kts | 303° |
| 2026-04-27 13:26 | 49.15595 | 16.68682 | 789 ft | 6 kts | 224° |
| 2026-04-27 13:26 | 49.15571 | 16.68684 | 788 ft | 0 kts | 142° |